Darstellungsparameter: Aktuell verwendete Einstellungen:
Skalierung der Graphiken ... ?
xyx+y,   Skalierungsfaktor:      Skalierung: Modus: x, Faktor: 1
Darstellungszeitraum ... ?
Vom - - bis: - -   Zeitraum: 05.05.2010 - 18.05.2010
Min/Max/Avg-Anzeige ... ?
Zeige MMA aktuell
Zeige MMA Monat
Zeige MMA alles
Zeige --A aktuell
Zeige --A Monat
Zeige --A alles
Keine MMA-Anzeige
MMA:
Average (ber die Originaldaten)
MMA-Basis: 05.05.2010 - 18.05.2010
Quicknavigation für Darstellung... ?
Tage:      1T, 2T, 3T, 5T -1T -2T -3T -5T +1T +2T +3T +5T
Wochen: 1W, 2W, 3W -1W -2W -3W +1W +2W +3W
Monate: 1M, 3M, 6M -1M -3M -6M +1M +3M +6M
Jahre:    1J, 3J, 5J, 10J -1J -3J -5J -10J +1J +3J +5J +10J
Nutze für die Darstellung ... ?
Originaldaten oder Mittelwerte auf ...
Stundenbasis Tagesbasis Wochenbasis
Monatsbasis Jahresbasis      Datenbasis: Original-Daten
Darstellen als:
Statistik (Auto) Statistik J:M      Darstellung:
Zur Graphik,    zurück zur Übersicht aller Sensoren.
 
Tabellarische Datenbersicht: ?
 
Sensor: Nr:Datum:Temp:Abs-Feuchte:Windchill:Wind:
Aussen-T/F 1 05-05-2010 00:09:05 6.8 C 4.05 g/m*3 6.8 C 0 km/h
2 05-05-2010 00:21:05 6.7 C 4.18 g/m*3 6.7 C 0 km/h
3 05-05-2010 00:33:05 6.3 C 4.22 g/m*3 6.3 C 0 km/h
4 05-05-2010 00:45:05 6 C 4.21 g/m*3 6 C 0 km/h
5 05-05-2010 00:57:05 5.8 C 4.37 g/m*3 5.8 C 0 km/h
6 05-05-2010 01:09:05 5.5 C 4.35 g/m*3 5.5 C 0 km/h
7 05-05-2010 01:21:05 5.3 C 4.44 g/m*3 5.3 C 0 km/h
8 05-05-2010 01:33:05 5.4 C 4.4 g/m*3 5.4 C 0 km/h
9 05-05-2010 01:45:05 5.6 C 4.31 g/m*3 5.6 C 0 km/h
10 05-05-2010 01:57:05 5.6 C 4.24 g/m*3 5.6 C 0 km/h
11 05-05-2010 02:09:05 5.7 C 4.13 g/m*3 5.7 C 0 km/h
12 05-05-2010 02:21:05 5.7 C 4.13 g/m*3 5.7 C 0 km/h
13 05-05-2010 02:33:05 5.6 C 4.17 g/m*3 5.6 C 0 km/h
14 05-05-2010 02:45:06 5.5 C 4.21 g/m*3 5.5 C 0 km/h
15 05-05-2010 02:57:06 5.2 C 4.2 g/m*3 5.2 C 0 km/h
16 05-05-2010 03:09:06 5.1 C 4.24 g/m*3 5.1 C 0 km/h
17 05-05-2010 03:21:06 4.8 C 4.22 g/m*3 4.8 C 0 km/h
18 05-05-2010 03:33:06 4.7 C 4.13 g/m*3 4.7 C 0 km/h
19 05-05-2010 03:45:06 4.6 C 4.1 g/m*3 4.6 C 0 km/h
20 05-05-2010 03:57:06 4.5 C 4.01 g/m*3 4.5 C 0 km/h
21 05-05-2010 04:09:06 4.3 C 3.96 g/m*3 4.3 C 0 km/h
22 05-05-2010 04:21:06 4 C 4.01 g/m*3 4 C 0 km/h
23 05-05-2010 04:33:06 3.8 C 4.08 g/m*3 3.8 C 0 km/h
24 05-05-2010 04:45:06 3.7 C 4.11 g/m*3 3.7 C 0 km/h
25 05-05-2010 04:57:06 3.7 C 4.05 g/m*3 3.7 C 0 km/h
Sensor: Nr:Datum:Temp:Abs-Feuchte:Windchill:Wind:
Aussen-T/F 26 05-05-2010 05:09:06 3.6 C 4.02 g/m*3 3.6 C 0 km/h
27 05-05-2010 05:21:06 3.6 C 3.96 g/m*3 3.6 C 0 km/h
28 05-05-2010 05:33:06 3.6 C 3.9 g/m*3 3.6 C 0 km/h
29 05-05-2010 05:45:06 3.4 C 3.79 g/m*3 3.4 C 0 km/h
30 05-05-2010 05:57:06 3.2 C 3.86 g/m*3 3.2 C 0 km/h
31 05-05-2010 06:09:06 3 C 3.86 g/m*3 3 C 0 km/h
32 05-05-2010 06:21:06 2.8 C 3.99 g/m*3 2.8 C 0 km/h
33 05-05-2010 06:33:03 2.6 C 3.99 g/m*3 2.6 C 0 km/h
34 05-05-2010 06:45:03 2.5 C 4.02 g/m*3 2.5 C 0 km/h
35 05-05-2010 06:57:03 2.5 C 4.08 g/m*3 2.5 C 0 km/h
36 05-05-2010 07:09:02 2.5 C 4.14 g/m*3 2.5 C 0 km/h
37 05-05-2010 07:21:03 2.7 C 4.25 g/m*3 2.7 C 0 km/h
38 05-05-2010 07:33:02 2.8 C 4.28 g/m*3 2.8 C 0 km/h
39 05-05-2010 07:45:02 3 C 4.28 g/m*3 3 C 0 km/h
40 05-05-2010 07:57:02 3.4 C 4.4 g/m*3 3.4 C 0 km/h
41 05-05-2010 08:09:02 3.8 C 4.45 g/m*3 3.8 C 0 km/h
42 05-05-2010 08:21:02 4.4 C 4.31 g/m*3 4.4 C 0 km/h
43 05-05-2010 08:33:02 4.6 C 4.17 g/m*3 4.6 C 0 km/h
44 05-05-2010 08:45:02 4.9 C 4.12 g/m*3 4.9 C 0 km/h
45 05-05-2010 08:57:02 5.3 C 4.02 g/m*3 5.3 C 0 km/h
46 05-05-2010 09:09:01 6 C 3.99 g/m*3 6 C 0 km/h
47 05-05-2010 09:21:02 6.6 C 3.85 g/m*3 6.6 C 0 km/h
48 05-05-2010 09:33:02 7.2 C 3.92 g/m*3 7.2 C 0 km/h
49 05-05-2010 09:45:02 7.5 C 3.76 g/m*3 7.5 C 0 km/h
50 05-05-2010 09:57:02 7.9 C 3.7 g/m*3 7.9 C 0 km/h
Sensor: Nr:Datum:Temp:Abs-Feuchte:Windchill:Wind:
Aussen-T/F 51 05-05-2010 10:09:02 8.1 C 3.58 g/m*3 8.1 C 0 km/h
52 05-05-2010 10:21:02 8.6 C 3.52 g/m*3 8.6 C 0 km/h
53 05-05-2010 10:33:02 9.5 C 3.37 g/m*3 9.5 C 0 km/h
54 05-05-2010 10:45:01 9.6 C 3.11 g/m*3 9.6 C 0 km/h
55 05-05-2010 10:57:01 10 C 2.91 g/m*3 10 C 0 km/h
56 05-05-2010 11:09:02 10.4 C 2.89 g/m*3 10.4 C 0 km/h
57 05-05-2010 11:21:01 10.7 C 2.75 g/m*3 10.7 C 0 km/h
58 05-05-2010 11:33:02 11.2 C 3.04 g/m*3 11.2 C 0 km/h
59 05-05-2010 11:45:02 11.9 C 2.65 g/m*3 11.9 C 0 km/h
60 05-05-2010 11:57:02 12.5 C 2.42 g/m*3 12.5 C 0 km/h
61 05-05-2010 12:09:02 12.7 C 2.23 g/m*3 12.7 C 0 km/h
62 05-05-2010 12:21:01 12.7 C 2.23 g/m*3 12.7 C 0 km/h
63 05-05-2010 12:33:02 13.4 C 2.32 g/m*3 13.4 C 0 km/h
64 05-05-2010 12:45:02 14.6 C 2.5 g/m*3 14.6 C 0 km/h
65 05-05-2010 12:57:02 15.2 C 2.6 g/m*3 15.2 C 0 km/h
66 05-05-2010 13:09:02 15.9 C 2.71 g/m*3 15.9 C 0 km/h
67 05-05-2010 13:21:01 16.6 C 2.83 g/m*3 16.6 C 0 km/h
68 05-05-2010 13:33:02 17.2 C 2.93 g/m*3 17.2 C 0 km/h
69 05-05-2010 13:45:01 16.6 C 2.83 g/m*3 16.6 C 0 km/h
70 05-05-2010 13:57:01 16.4 C 2.79 g/m*3 16.4 C 0 km/h
71 05-05-2010 14:09:02 16.7 C 2.84 g/m*3 16.7 C 0 km/h
72 05-05-2010 14:21:02 16.7 C 2.84 g/m*3 16.7 C 0 km/h
73 05-05-2010 14:33:01 17 C 2.89 g/m*3 17 C 0 km/h
74 05-05-2010 14:45:01 17.4 C 2.96 g/m*3 17.4 C 0 km/h
75 05-05-2010 14:57:01 17.5 C 2.98 g/m*3 17.5 C 0 km/h
Sensor: Nr:Datum:Temp:Abs-Feuchte:Windchill:Wind:
Aussen-T/F 76 05-05-2010 15:09:02 18.3 C 3.13 g/m*3 18.3 C 0 km/h
77 05-05-2010 15:21:02 18.2 C 3.11 g/m*3 18.2 C 0 km/h
78 05-05-2010 15:33:01 17.8 C 3.04 g/m*3 17.8 C 0 km/h
79 05-05-2010 15:45:02 18 C 3.07 g/m*3 18 C 0 km/h
80 05-05-2010 15:57:02 18.2 C 3.11 g/m*3 18.2 C 0 km/h
81 05-05-2010 16:09:01 18.3 C 3.13 g/m*3 18.3 C 0 km/h
82 05-05-2010 16:21:01 18.1 C 3.09 g/m*3 18.1 C 0 km/h
83 05-05-2010 16:33:01 17.7 C 3.02 g/m*3 17.7 C 0 km/h
84 05-05-2010 16:45:02 17.5 C 2.98 g/m*3 17.5 C 0 km/h
85 05-05-2010 16:57:02 17.2 C 2.93 g/m*3 17.2 C 0 km/h
86 05-05-2010 17:09:02 16.7 C 2.84 g/m*3 16.7 C 0 km/h
87 05-05-2010 17:21:02 16.2 C 2.76 g/m*3 16.2 C 0 km/h
88 05-05-2010 17:33:02 15.6 C 2.66 g/m*3 15.6 C 0 km/h
89 05-05-2010 17:45:02 15.1 C 2.58 g/m*3 15.1 C 0 km/h
90 05-05-2010 17:57:02 14.8 C 2.53 g/m*3 14.8 C 0 km/h
91 05-05-2010 18:09:01 14.5 C 2.49 g/m*3 14.5 C 0 km/h
92 05-05-2010 18:21:01 14.4 C 2.47 g/m*3 14.4 C 0 km/h
93 05-05-2010 18:33:02 14.2 C 2.44 g/m*3 14.2 C 0 km/h
94 05-05-2010 18:45:02 14.1 C 2.43 g/m*3 14.1 C 0 km/h
95 05-05-2010 18:57:02 13.8 C 2.38 g/m*3 13.8 C 0 km/h
96 05-05-2010 19:09:02 13.7 C 2.37 g/m*3 13.7 C 0 km/h
97 05-05-2010 19:21:01 13.6 C 2.35 g/m*3 13.6 C 0 km/h
98 05-05-2010 19:33:02 13.5 C 2.34 g/m*3 13.5 C 0 km/h
99 05-05-2010 19:45:02 13.3 C 2.43 g/m*3 13.3 C 0 km/h
100 05-05-2010 19:57:02 13.1 C 2.28 g/m*3 13.1 C 0 km/h
Sensor: Nr:Datum:Temp:Abs-Feuchte:Windchill:Wind:
Aussen-T/F 101 05-05-2010 20:09:02 13 C 2.49 g/m*3 13 C 0 km/h
102 05-05-2010 20:21:02 12.9 C 2.82 g/m*3 12.9 C 0 km/h
103 05-05-2010 20:33:02 12.8 C 2.91 g/m*3 12.8 C 0 km/h
104 05-05-2010 20:45:02 12.7 C 2.89 g/m*3 12.7 C 0 km/h
105 05-05-2010 20:57:02 12.6 C 2.88 g/m*3 12.6 C 0 km/h
106 05-05-2010 21:09:02 12.5 C 2.86 g/m*3 12.5 C 0 km/h
107 05-05-2010 21:21:02 12.4 C 2.84 g/m*3 12.4 C 0 km/h
108 05-05-2010 21:33:02 12.3 C 2.82 g/m*3 12.3 C 0 km/h
109 05-05-2010 21:45:02 12.3 C 2.93 g/m*3 12.3 C 0 km/h
110 05-05-2010 21:57:02 12.2 C 2.91 g/m*3 12.2 C 0 km/h
111 05-05-2010 22:09:03 12.1 C 3 g/m*3 12.1 C 0 km/h
112 05-05-2010 22:21:02 12 C 3.09 g/m*3 12 C 0 km/h
113 05-05-2010 22:34:02 11.9 C 3.39 g/m*3 11.9 C 0 km/h
114 05-05-2010 22:46:02 11.7 C 3.35 g/m*3 11.7 C 0 km/h
115 05-05-2010 22:58:02 11.7 C 3.35 g/m*3 11.7 C 0 km/h
116 05-05-2010 23:10:02 11.6 C 3.22 g/m*3 11.6 C 0 km/h
117 05-05-2010 23:22:02 11.5 C 3.2 g/m*3 11.5 C 0 km/h
118 05-05-2010 23:34:02 11.6 C 3.33 g/m*3 11.6 C 0 km/h
119 05-05-2010 23:46:02 11.4 C 3.39 g/m*3 11.4 C 0 km/h
120 05-05-2010 23:58:02 11.4 C 3.39 g/m*3 11.4 C 0 km/h
121 06-05-2010 00:10:02 11.3 C 3.47 g/m*3 11.3 C 0 km/h
122 06-05-2010 00:22:02 11.2 C 3.55 g/m*3 11.2 C 0 km/h
123 06-05-2010 00:34:02 11.2 C 3.55 g/m*3 11.2 C 0 km/h
124 06-05-2010 00:46:02 10.7 C 4.03 g/m*3 10.7 C 0 km/h
125 06-05-2010 00:58:02 9.8 C 4.45 g/m*3 9.8 C 0 km/h
Sensor: Nr:Datum:Temp:Abs-Feuchte:Windchill:Wind:
Aussen-T/F 126 06-05-2010 01:10:02 8.7 C 5.1 g/m*3 8.7 C 0 km/h
127 06-05-2010 01:22:02 7.9 C 5.5 g/m*3 7.9 C 0 km/h
128 06-05-2010 01:34:02 7.3 C 5.93 g/m*3 7.3 C 0 km/h
129 06-05-2010 01:46:02 7.1 C 6.01 g/m*3 7.1 C 0 km/h
130 06-05-2010 01:58:03 7 C 6.04 g/m*3 7 C 0 km/h
131 06-05-2010 02:10:03 6.9 C 6.31 g/m*3 6.9 C 0 km/h
132 06-05-2010 02:22:03 6.8 C 6.42 g/m*3 6.8 C 0 km/h
133 06-05-2010 02:34:03 6.7 C 6.53 g/m*3 6.7 C 0 km/h
134 06-05-2010 02:46:03 6.5 C 6.52 g/m*3 6.5 C 0 km/h
135 06-05-2010 02:58:03 6.8 C 6.73 g/m*3 6.8 C 0 km/h
136 06-05-2010 03:10:03 6.8 C 6.81 g/m*3 6.8 C 0 km/h
137 06-05-2010 03:22:03 6.7 C 6.84 g/m*3 6.7 C 0 km/h
138 06-05-2010 03:34:03 6.5 C 6.82 g/m*3 6.5 C 0 km/h
139 06-05-2010 03:46:03 6.9 C 7.01 g/m*3 6.9 C 0 km/h
140 06-05-2010 03:58:03 6.8 C 7.04 g/m*3 6.8 C 0 km/h
141 06-05-2010 04:10:03 6.9 C 7.08 g/m*3 6.9 C 0 km/h
142 06-05-2010 04:22:03 6.9 C 7.08 g/m*3 6.9 C 0 km/h
143 06-05-2010 04:34:03 6.9 C 7.08 g/m*3 6.9 C 0 km/h
144 06-05-2010 04:46:03 6.9 C 7.08 g/m*3 6.9 C 0 km/h
145 06-05-2010 04:58:03 6.8 C 7.04 g/m*3 6.8 C 0 km/h
146 06-05-2010 05:10:03 6.6 C 7.02 g/m*3 6.6 C 0 km/h
147 06-05-2010 05:22:03 6.5 C 6.97 g/m*3 6.5 C 0 km/h
148 06-05-2010 05:34:03 6.6 C 7.02 g/m*3 6.6 C 0 km/h
149 06-05-2010 05:46:03 6.8 C 7.11 g/m*3 6.8 C 0 km/h
150 06-05-2010 05:58:04 6.8 C 7.11 g/m*3 6.8 C 0 km/h
Sensor: Nr:Datum:Temp:Abs-Feuchte:Windchill:Wind:
Aussen-T/F 151 06-05-2010 06:10:04 6.5 C 6.97 g/m*3 6.5 C 0 km/h
152 06-05-2010 06:22:04 6.5 C 6.97 g/m*3 6.5 C 0 km/h
153 06-05-2010 06:34:04 6.5 C 6.97 g/m*3 6.5 C 0 km/h
154 06-05-2010 06:46:04 6.6 C 7.02 g/m*3 6.6 C 0 km/h
155 06-05-2010 06:58:04 6.5 C 7.05 g/m*3 6.5 C 0 km/h
156 06-05-2010 07:10:01 6.4 C 7 g/m*3 6.4 C 0 km/h
157 06-05-2010 07:22:02 6.4 C 7 g/m*3 6.4 C 0 km/h
158 06-05-2010 07:34:01 6.3 C 6.96 g/m*3 6.3 C 0 km/h
159 06-05-2010 07:46:03 6.5 C 7.05 g/m*3 6.5 C 0 km/h
160 06-05-2010 07:58:03 6.3 C 6.96 g/m*3 6.3 C 0 km/h
161 06-05-2010 08:10:02 6.1 C 6.87 g/m*3 6.1 C 0 km/h
162 06-05-2010 08:22:02 6.2 C 6.91 g/m*3 6.2 C 0 km/h
163 06-05-2010 08:34:03 6.2 C 6.91 g/m*3 6.2 C 0 km/h
164 06-05-2010 08:46:02 6.4 C 7 g/m*3 6.4 C 0 km/h
165 06-05-2010 08:58:02 6.2 C 6.91 g/m*3 6.2 C 0 km/h
166 06-05-2010 09:10:02 6.2 C 6.84 g/m*3 6.2 C 0 km/h
167 06-05-2010 09:22:01 6.4 C 7 g/m*3 6.4 C 0 km/h
168 06-05-2010 09:34:02 6.6 C 7.1 g/m*3 6.6 C 0 km/h
169 06-05-2010 09:46:02 6.8 C 7.19 g/m*3 6.8 C 0 km/h
170 06-05-2010 09:58:02 6.8 C 7.19 g/m*3 6.8 C 0 km/h
171 06-05-2010 10:10:02 6.8 C 7.19 g/m*3 6.8 C 0 km/h
172 06-05-2010 10:22:02 6.9 C 7.24 g/m*3 6.9 C 0 km/h
173 06-05-2010 10:34:02 6.8 C 7.11 g/m*3 6.8 C 0 km/h
174 06-05-2010 10:46:02 6.8 C 7.11 g/m*3 6.8 C 0 km/h
175 06-05-2010 10:58:02 6.9 C 7.16 g/m*3 6.9 C 0 km/h
Sensor: Nr:Datum:Temp:Abs-Feuchte:Windchill:Wind:
Aussen-T/F 176 06-05-2010 11:10:02 7 C 7.21 g/m*3 7 C 0 km/h
177 06-05-2010 11:22:02 7 C 7.13 g/m*3 7 C 0 km/h
178 06-05-2010 11:34:02 7 C 7.13 g/m*3 7 C 0 km/h
179 06-05-2010 11:46:01 7.1 C 7.18 g/m*3 7.1 C 0 km/h
180 06-05-2010 11:58:01 7.1 C 7.18 g/m*3 7.1 C 0 km/h
181 06-05-2010 12:10:01 7.2 C 7.22 g/m*3 7.2 C 0 km/h
182 06-05-2010 12:22:02 6.9 C 7.08 g/m*3 6.9 C 0 km/h
183 06-05-2010 12:34:02 6.9 C 7.01 g/m*3 6.9 C 0 km/h
184 06-05-2010 12:46:01 7.1 C 7.1 g/m*3 7.1 C 0 km/h
185 06-05-2010 12:58:01 7.2 C 7.06 g/m*3 7.2 C 0 km/h
186 06-05-2010 13:10:02 7.5 C 7.2 g/m*3 7.5 C 0 km/h
187 06-05-2010 13:22:01 7.7 C 7.3 g/m*3 7.7 C 0 km/h
188 06-05-2010 13:34:02 7.4 C 7.16 g/m*3 7.4 C 0 km/h
189 06-05-2010 13:46:02 7.3 C 7.19 g/m*3 7.3 C 0 km/h
190 06-05-2010 13:58:02 7.2 C 7.14 g/m*3 7.2 C 0 km/h
191 06-05-2010 14:10:03 7.3 C 7.27 g/m*3 7.3 C 0 km/h
192 06-05-2010 14:22:02 7.4 C 7.32 g/m*3 7.4 C 0 km/h
193 06-05-2010 14:34:03 7.3 C 7.27 g/m*3 7.3 C 0 km/h
194 06-05-2010 14:46:02 7.4 C 7.32 g/m*3 7.4 C 0 km/h
195 06-05-2010 14:58:02 7.6 C 7.49 g/m*3 7.6 C 0 km/h
196 06-05-2010 15:10:02 7.5 C 7.44 g/m*3 7.5 C 0 km/h
197 06-05-2010 15:22:02 7.1 C 7.18 g/m*3 7.1 C 0 km/h
198 06-05-2010 15:34:03 7.1 C 7.25 g/m*3 7.1 C 0 km/h
199 06-05-2010 15:46:01 6.9 C 7.16 g/m*3 6.9 C 0 km/h
200 06-05-2010 15:58:01 6.9 C 7.24 g/m*3 6.9 C 0 km/h
Sensor: Nr:Datum:Temp:Abs-Feuchte:Windchill:Wind:
Aussen-T/F 201 06-05-2010 16:10:02 6.7 C 7.14 g/m*3 6.7 C 0 km/h
202 06-05-2010 16:22:02 6.5 C 6.97 g/m*3 6.5 C 0 km/h
203 06-05-2010 16:34:02 6.5 C 6.97 g/m*3 6.5 C 0 km/h
204 06-05-2010 16:46:03 6.5 C 6.97 g/m*3 6.5 C 0 km/h
205 06-05-2010 16:58:03 6.5 C 6.97 g/m*3 6.5 C 0 km/h
206 06-05-2010 17:10:02 6.5 C 6.9 g/m*3 6.5 C 0 km/h
207 06-05-2010 17:22:03 6.6 C 6.95 g/m*3 6.6 C 0 km/h
208 06-05-2010 17:34:02 6.4 C 6.85 g/m*3 6.4 C 0 km/h
209 06-05-2010 17:46:03 6.5 C 6.9 g/m*3 6.5 C 0 km/h
210 06-05-2010 17:58:03 6.3 C 6.81 g/m*3 6.3 C 0 km/h
211 06-05-2010 18:10:02 6 C 6.6 g/m*3 6 C 0 km/h
212 06-05-2010 18:22:02 5.9 C 6.56 g/m*3 5.9 C 0 km/h
213 06-05-2010 18:34:02 5.8 C 6.52 g/m*3 5.8 C 0 km/h
214 06-05-2010 18:46:02 5.9 C 6.63 g/m*3 5.9 C 0 km/h
215 06-05-2010 18:58:02 5.9 C 6.63 g/m*3 5.9 C 0 km/h
216 06-05-2010 19:10:02 6 C 6.6 g/m*3 6 C 0 km/h
217 06-05-2010 19:22:02 5.9 C 6.63 g/m*3 5.9 C 0 km/h
218 06-05-2010 19:34:02 5.9 C 6.63 g/m*3 5.9 C 0 km/h
219 06-05-2010 19:46:02 5.7 C 6.55 g/m*3 5.7 C 0 km/h
220 06-05-2010 19:58:02 5.6 C 6.57 g/m*3 5.6 C 0 km/h
221 06-05-2010 20:10:01 5.6 C 6.57 g/m*3 5.6 C 0 km/h
222 06-05-2010 20:22:02 5.5 C 6.53 g/m*3 5.5 C 0 km/h
223 06-05-2010 20:34:02 5.6 C 6.65 g/m*3 5.6 C 0 km/h
224 06-05-2010 20:46:02 5.4 C 6.56 g/m*3 5.4 C 0 km/h
225 06-05-2010 20:58:02 5.4 C 6.56 g/m*3 5.4 C 0 km/h
Sensor: Nr:Datum:Temp:Abs-Feuchte:Windchill:Wind:
Aussen-T/F 226 06-05-2010 21:10:01 5.4 C 6.56 g/m*3 5.4 C 0 km/h
227 06-05-2010 21:22:02 5.4 C 6.56 g/m*3 5.4 C 0 km/h
228 06-05-2010 21:34:01 5.3 C 6.52 g/m*3 5.3 C 0 km/h
229 06-05-2010 21:46:03 5.4 C 6.56 g/m*3 5.4 C 0 km/h
230 06-05-2010 21:58:03 5.4 C 6.56 g/m*3 5.4 C 0 km/h
231 06-05-2010 22:10:02 5.4 C 6.63 g/m*3 5.4 C 0 km/h
232 06-05-2010 22:22:02 5.4 C 6.63 g/m*3 5.4 C 0 km/h
233 06-05-2010 22:34:02 5.4 C 6.63 g/m*3 5.4 C 0 km/h
234 06-05-2010 22:47:02 5.4 C 6.63 g/m*3 5.4 C 0 km/h
235 06-05-2010 22:59:02 5.4 C 6.63 g/m*3 5.4 C 0 km/h
236 06-05-2010 23:11:02 5.4 C 6.63 g/m*3 5.4 C 0 km/h
237 06-05-2010 23:23:02 5.4 C 6.63 g/m*3 5.4 C 0 km/h
238 06-05-2010 23:35:02 5.4 C 6.63 g/m*3 5.4 C 0 km/h
239 06-05-2010 23:47:02 5.3 C 6.58 g/m*3 5.3 C 0 km/h
240 06-05-2010 23:59:02 5.3 C 6.58 g/m*3 5.3 C 0 km/h
241 07-05-2010 00:11:02 5.4 C 6.63 g/m*3 5.4 C 0 km/h
242 07-05-2010 00:23:02 5.4 C 6.63 g/m*3 5.4 C 0 km/h
243 07-05-2010 00:35:02 5.4 C 6.63 g/m*3 5.4 C 0 km/h
244 07-05-2010 00:47:02 5.4 C 6.63 g/m*3 5.4 C 0 km/h
245 07-05-2010 00:59:02 5.4 C 6.63 g/m*3 5.4 C 0 km/h
246 07-05-2010 01:11:03 5.4 C 6.63 g/m*3 5.4 C 0 km/h
247 07-05-2010 01:23:03 5.4 C 6.63 g/m*3 5.4 C 0 km/h
248 07-05-2010 01:35:03 5.4 C 6.63 g/m*3 5.4 C 0 km/h
249 07-05-2010 01:47:03 5.4 C 6.63 g/m*3 5.4 C 0 km/h
250 07-05-2010 01:59:03 5.4 C 6.63 g/m*3 5.4 C 0 km/h
Sensor: Nr:Datum:Temp:Abs-Feuchte:Windchill:Wind:
Aussen-T/F 251 07-05-2010 02:11:03 5.4 C 6.63 g/m*3 5.4 C 0 km/h
252 07-05-2010 02:23:03 5.4 C 6.63 g/m*3 5.4 C 0 km/h
253 07-05-2010 02:35:03 5.4 C 6.63 g/m*3 5.4 C 0 km/h
254 07-05-2010 02:47:03 5.4 C 6.63 g/m*3 5.4 C 0 km/h
255 07-05-2010 02:59:03 5.4 C 6.63 g/m*3 5.4 C 0 km/h
256 07-05-2010 03:11:03 5.4 C 6.63 g/m*3 5.4 C 0 km/h
257 07-05-2010 03:23:03 5.4 C 6.63 g/m*3 5.4 C 0 km/h
258 07-05-2010 03:35:03 5.3 C 6.58 g/m*3 5.3 C 0 km/h
259 07-05-2010 03:47:03 5.3 C 6.58 g/m*3 5.3 C 0 km/h
260 07-05-2010 03:59:03 5.2 C 6.54 g/m*3 5.2 C 0 km/h
261 07-05-2010 04:11:03 5.2 C 6.54 g/m*3 5.2 C 0 km/h
262 07-05-2010 04:23:03 5.2 C 6.54 g/m*3 5.2 C 0 km/h
263 07-05-2010 04:35:03 5.2 C 6.54 g/m*3 5.2 C 0 km/h
264 07-05-2010 04:47:03 5.2 C 6.54 g/m*3 5.2 C 0 km/h
265 07-05-2010 04:59:03 5.1 C 6.5 g/m*3 5.1 C 0 km/h
266 07-05-2010 05:11:04 5 C 6.46 g/m*3 5 C 0 km/h
267 07-05-2010 05:23:04 5 C 6.46 g/m*3 5 C 0 km/h
268 07-05-2010 05:35:04 4.9 C 6.41 g/m*3 4.9 C 0 km/h
269 07-05-2010 05:47:04 4.8 C 6.37 g/m*3 4.8 C 0 km/h
270 07-05-2010 05:59:04 4.7 C 6.33 g/m*3 4.7 C 0 km/h
271 07-05-2010 06:11:04 4.7 C 6.33 g/m*3 4.7 C 0 km/h
272 07-05-2010 06:23:04 4.6 C 6.29 g/m*3 4.6 C 0 km/h
273 07-05-2010 06:35:04 4.5 C 6.24 g/m*3 4.5 C 0 km/h
274 07-05-2010 06:47:04 4.6 C 6.29 g/m*3 4.6 C 0 km/h
275 07-05-2010 06:59:04 4.6 C 6.29 g/m*3 4.6 C 0 km/h
Sensor: Nr:Datum:Temp:Abs-Feuchte:Windchill:Wind:
Aussen-T/F 276 07-05-2010 07:11:04 4.6 C 6.29 g/m*3 4.6 C 0 km/h
277 07-05-2010 07:23:04 4.7 C 6.33 g/m*3 4.7 C 0 km/h
278 07-05-2010 07:35:04 4.6 C 6.29 g/m*3 4.6 C 0 km/h
279 07-05-2010 07:47:04 4.7 C 6.33 g/m*3 4.7 C 0 km/h
280 07-05-2010 07:59:04 4.8 C 6.37 g/m*3 4.8 C 0 km/h
281 07-05-2010 08:11:04 4.9 C 6.41 g/m*3 4.9 C 0 km/h
282 07-05-2010 08:23:04 4.8 C 6.37 g/m*3 4.8 C 0 km/h
283 07-05-2010 08:35:02 5 C 6.46 g/m*3 5 C 0 km/h
284 07-05-2010 08:47:02 4.8 C 6.3 g/m*3 4.8 C 0 km/h
285 07-05-2010 08:59:02 4.6 C 6.22 g/m*3 4.6 C 0 km/h
286 07-05-2010 09:11:02 4.9 C 6.28 g/m*3 4.9 C 0 km/h
287 07-05-2010 09:23:03 4.8 C 6.24 g/m*3 4.8 C 0 km/h
288 07-05-2010 09:35:02 4.7 C 6.13 g/m*3 4.7 C 0 km/h
289 07-05-2010 09:47:02 5 C 6.12 g/m*3 5 C 0 km/h
290 07-05-2010 09:59:02 4.9 C 6.08 g/m*3 4.9 C 0 km/h
291 07-05-2010 10:11:02 5 C 6.05 g/m*3 5 C 0 km/h
292 07-05-2010 10:23:02 5.3 C 6.17 g/m*3 5.3 C 0 km/h
293 07-05-2010 10:35:02 6 C 6.39 g/m*3 6 C 0 km/h
294 07-05-2010 10:47:02 5.6 C 6.15 g/m*3 5.6 C 0 km/h
295 07-05-2010 10:59:02 5.7 C 6.12 g/m*3 5.7 C 0 km/h
296 07-05-2010 11:11:01 6.8 C 6.58 g/m*3 6.8 C 0 km/h
297 07-05-2010 11:23:02 7 C 6.66 g/m*3 7 C 0 km/h
298 07-05-2010 11:35:02 7.1 C 6.71 g/m*3 7.1 C 0 km/h
299 07-05-2010 11:47:02 7.1 C 6.71 g/m*3 7.1 C 0 km/h
300 07-05-2010 11:59:02 7.1 C 6.63 g/m*3 7.1 C 0 km/h
Sensor: Nr:Datum:Temp:Abs-Feuchte:Windchill:Wind:
Aussen-T/F 301 07-05-2010 12:11:03 7.1 C 6.4 g/m*3 7.1 C 0 km/h
302 07-05-2010 12:23:02 7 C 6.28 g/m*3 7 C 0 km/h
303 07-05-2010 12:35:02 7.1 C 6.4 g/m*3 7.1 C 0 km/h
304 07-05-2010 12:47:01 7.3 C 6.48 g/m*3 7.3 C 0 km/h
305 07-05-2010 12:59:01 7.2 C 6.2 g/m*3 7.2 C 0 km/h
306 07-05-2010 13:11:02 7.3 C 6.4 g/m*3 7.3 C 0 km/h
307 07-05-2010 13:23:01 7.8 C 6.61 g/m*3 7.8 C 0 km/h
308 07-05-2010 13:35:02 8.3 C 6.66 g/m*3 8.3 C 0 km/h
309 07-05-2010 13:47:01 7.9 C 6.49 g/m*3 7.9 C 0 km/h
310 07-05-2010 13:59:01 7.7 C 6.41 g/m*3 7.7 C 0 km/h
311 07-05-2010 14:11:02 8.6 C 6.87 g/m*3 8.6 C 0 km/h
312 07-05-2010 14:23:01 8.4 C 6.79 g/m*3 8.4 C 0 km/h
313 07-05-2010 14:35:02 8.5 C 6.92 g/m*3 8.5 C 0 km/h
314 07-05-2010 14:47:01 8.3 C 6.83 g/m*3 8.3 C 0 km/h
315 07-05-2010 14:59:01 8.3 C 6.66 g/m*3 8.3 C 0 km/h
316 07-05-2010 15:11:02 8.4 C 6.87 g/m*3 8.4 C 0 km/h
317 07-05-2010 15:23:02 7.8 C 6.61 g/m*3 7.8 C 0 km/h
318 07-05-2010 15:35:02 7.7 C 6.57 g/m*3 7.7 C 0 km/h
319 07-05-2010 15:47:02 8.5 C 7 g/m*3 8.5 C 0 km/h
320 07-05-2010 15:59:02 8.6 C 7.05 g/m*3 8.6 C 0 km/h
321 07-05-2010 16:11:01 9.3 C 7.19 g/m*3 9.3 C 0 km/h
322 07-05-2010 16:23:01 9.2 C 6.97 g/m*3 9.2 C 0 km/h
323 07-05-2010 16:35:01 9 C 6.61 g/m*3 9 C 0 km/h
324 07-05-2010 16:47:01 9.2 C 6.97 g/m*3 9.2 C 0 km/h
325 07-05-2010 16:59:01 9.1 C 6.92 g/m*3 9.1 C 0 km/h
Sensor: Nr:Datum:Temp:Abs-Feuchte:Windchill:Wind:
Aussen-T/F 326 07-05-2010 17:11:02 8.9 C 6.92 g/m*3 8.9 C 0 km/h
327 07-05-2010 17:23:01 9.2 C 6.97 g/m*3 9.2 C 0 km/h
328 07-05-2010 17:35:02 9.4 C 7.05 g/m*3 9.4 C 0 km/h
329 07-05-2010 17:47:01 9.8 C 7.24 g/m*3 9.8 C 0 km/h
330 07-05-2010 17:59:01 9.8 C 7.24 g/m*3 9.8 C 0 km/h
331 07-05-2010 18:11:02 9.8 C 7.24 g/m*3 9.8 C 0 km/h
332 07-05-2010 18:23:02 9.4 C 6.96 g/m*3 9.4 C 0 km/h
333 07-05-2010 18:35:02 9 C 6.88 g/m*3 9 C 0 km/h
334 07-05-2010 18:47:02 9 C 7.05 g/m*3 9 C 0 km/h
335 07-05-2010 18:59:02 8.5 C 7 g/m*3 8.5 C 0 km/h
336 07-05-2010 19:11:02 8.2 C 7.03 g/m*3 8.2 C 0 km/h
337 07-05-2010 19:23:02 8.1 C 6.99 g/m*3 8.1 C 0 km/h
338 07-05-2010 19:35:02 7.9 C 7.06 g/m*3 7.9 C 0 km/h
339 07-05-2010 19:47:02 7.6 C 7.09 g/m*3 7.6 C 0 km/h
340 07-05-2010 19:59:02 7.7 C 7.14 g/m*3 7.7 C 0 km/h
341 07-05-2010 20:11:02 7.3 C 7.03 g/m*3 7.3 C 0 km/h
342 07-05-2010 20:23:01 7.3 C 7.03 g/m*3 7.3 C 0 km/h
343 07-05-2010 20:35:02 7.2 C 7.06 g/m*3 7.2 C 0 km/h
344 07-05-2010 20:47:02 7.1 C 7.1 g/m*3 7.1 C 0 km/h
345 07-05-2010 20:59:02 6.9 C 7.08 g/m*3 6.9 C 0 km/h
346 07-05-2010 21:11:02 6.7 C 6.99 g/m*3 6.7 C 0 km/h
347 07-05-2010 21:23:02 6.8 C 7.04 g/m*3 6.8 C 0 km/h
348 07-05-2010 21:35:02 6.8 C 7.11 g/m*3 6.8 C 0 km/h
349 07-05-2010 21:47:02 6.7 C 7.07 g/m*3 6.7 C 0 km/h
350 07-05-2010 21:59:02 6.4 C 6.93 g/m*3 6.4 C 0 km/h
Sensor: Nr:Datum:Temp:Abs-Feuchte:Windchill:Wind:
Aussen-T/F 351 07-05-2010 22:11:02 6.1 C 6.79 g/m*3 6.1 C 0 km/h
352 07-05-2010 22:23:02 5.9 C 6.71 g/m*3 5.9 C 0 km/h
353 07-05-2010 22:35:02 5.7 C 6.62 g/m*3 5.7 C 0 km/h
354 07-05-2010 22:47:02 5.6 C 6.57 g/m*3 5.6 C 0 km/h
355 07-05-2010 22:59:02 5.7 C 6.69 g/m*3 5.7 C 0 km/h
356 07-05-2010 23:11:01 5.9 C 6.78 g/m*3 5.9 C 0 km/h
357 07-05-2010 23:23:02 5.9 C 6.78 g/m*3 5.9 C 0 km/h
358 07-05-2010 23:35:02 5.9 C 6.85 g/m*3 5.9 C 0 km/h
359 07-05-2010 23:47:02 6 C 6.82 g/m*3 6 C 0 km/h
360 07-05-2010 23:59:03 6.1 C 6.87 g/m*3 6.1 C 0 km/h
361 08-05-2010 00:11:01 6.2 C 6.91 g/m*3 6.2 C 0 km/h
362 08-05-2010 00:23:02 6.2 C 6.91 g/m*3 6.2 C 0 km/h
363 08-05-2010 00:35:01 6 C 6.82 g/m*3 6 C 0 km/h
364 08-05-2010 00:47:02 5.6 C 6.65 g/m*3 5.6 C 0 km/h
365 08-05-2010 00:59:02 5.5 C 6.6 g/m*3 5.5 C 0 km/h
366 08-05-2010 01:11:02 5.4 C 6.56 g/m*3 5.4 C 0 km/h
367 08-05-2010 01:23:02 5.1 C 6.43 g/m*3 5.1 C 0 km/h
368 08-05-2010 01:35:02 4.9 C 6.35 g/m*3 4.9 C 0 km/h
369 08-05-2010 01:47:02 4.7 C 6.26 g/m*3 4.7 C 0 km/h
370 08-05-2010 01:59:02 4.7 C 6.33 g/m*3 4.7 C 0 km/h
371 08-05-2010 02:11:01 4.5 C 6.18 g/m*3 4.5 C 0 km/h
372 08-05-2010 02:23:02 4.5 C 6.24 g/m*3 4.5 C 0 km/h
373 08-05-2010 02:35:02 4.6 C 6.29 g/m*3 4.6 C 0 km/h
374 08-05-2010 02:48:03 4.4 C 6.2 g/m*3 4.4 C 0 km/h
375 08-05-2010 03:00:03 4.5 C 6.24 g/m*3 4.5 C 0 km/h
Sensor: Nr:Datum:Temp:Abs-Feuchte:Windchill:Wind:
Aussen-T/F 376 08-05-2010 03:12:03 4.6 C 6.29 g/m*3 4.6 C 0 km/h
377 08-05-2010 03:24:03 4.7 C 6.33 g/m*3 4.7 C 0 km/h
378 08-05-2010 03:36:02 4.6 C 6.29 g/m*3 4.6 C 0 km/h
379 08-05-2010 03:48:02 4.6 C 6.29 g/m*3 4.6 C 0 km/h
380 08-05-2010 04:00:02 4.7 C 6.33 g/m*3 4.7 C 0 km/h
381 08-05-2010 04:12:02 4.6 C 6.29 g/m*3 4.6 C 0 km/h
382 08-05-2010 04:24:02 4.4 C 6.2 g/m*3 4.4 C 0 km/h
383 08-05-2010 04:36:02 4 C 6.04 g/m*3 4 C 0 km/h
384 08-05-2010 04:48:02 4 C 6.04 g/m*3 4 C 0 km/h
385 08-05-2010 05:00:02 4.1 C 6.08 g/m*3 4.1 C 0 km/h
386 08-05-2010 05:12:01 4.2 C 6.12 g/m*3 4.2 C 0 km/h
387 08-05-2010 05:24:02 4.4 C 6.2 g/m*3 4.4 C 0 km/h
388 08-05-2010 05:36:02 4.5 C 6.24 g/m*3 4.5 C 0 km/h
389 08-05-2010 05:48:02 4.5 C 6.24 g/m*3 4.5 C 0 km/h
390 08-05-2010 06:00:02 4.5 C 6.24 g/m*3 4.5 C 0 km/h
391 08-05-2010 06:12:03 4.6 C 6.29 g/m*3 4.6 C 0 km/h
392 08-05-2010 06:24:02 4.6 C 6.29 g/m*3 4.6 C 0 km/h
393 08-05-2010 06:36:02 4.8 C 6.37 g/m*3 4.8 C 0 km/h
394 08-05-2010 06:48:01 4.8 C 6.37 g/m*3 4.8 C 0 km/h
395 08-05-2010 07:00:01 4.8 C 6.37 g/m*3 4.8 C 0 km/h
396 08-05-2010 07:12:02 5 C 6.46 g/m*3 5 C 0 km/h
397 08-05-2010 07:24:01 5.2 C 6.54 g/m*3 5.2 C 0 km/h
398 08-05-2010 07:36:01 5.5 C 6.67 g/m*3 5.5 C 0 km/h
399 08-05-2010 07:48:01 5.6 C 6.72 g/m*3 5.6 C 0 km/h
400 08-05-2010 08:00:01 5.9 C 6.78 g/m*3 5.9 C 0 km/h
Sensor: Nr:Datum:Temp:Abs-Feuchte:Windchill:Wind:
Aussen-T/F 401 08-05-2010 08:12:02 6 C 6.68 g/m*3 6 C 0 km/h
402 08-05-2010 08:24:01 5.8 C 6.52 g/m*3 5.8 C 0 km/h
403 08-05-2010 08:36:01 6.2 C 6.55 g/m*3 6.2 C 0 km/h
404 08-05-2010 08:48:01 6.5 C 6.6 g/m*3 6.5 C 0 km/h
405 08-05-2010 09:00:01 7.3 C 6.87 g/m*3 7.3 C 0 km/h
406 08-05-2010 09:12:02 8 C 7.03 g/m*3 8 C 0 km/h
407 08-05-2010 09:24:01 8.1 C 6.82 g/m*3 8.1 C 0 km/h
408 08-05-2010 09:36:01 8.7 C 7.01 g/m*3 8.7 C 0 km/h
409 08-05-2010 09:48:01 9.2 C 7.05 g/m*3 9.2 C 0 km/h
410 08-05-2010 10:00:01 9.1 C 6.74 g/m*3 9.1 C 0 km/h
411 08-05-2010 10:12:02 9.1 C 6.57 g/m*3 9.1 C 0 km/h
412 08-05-2010 10:24:01 9.6 C 6.87 g/m*3 9.6 C 0 km/h
413 08-05-2010 10:36:01 10.1 C 6.9 g/m*3 10.1 C 0 km/h
414 08-05-2010 10:48:01 10.4 C 7.04 g/m*3 10.4 C 0 km/h
415 08-05-2010 11:00:01 11.2 C 7.3 g/m*3 11.2 C 0 km/h
416 08-05-2010 11:12:02 12.1 C 7.18 g/m*3 12.1 C 0 km/h
417 08-05-2010 11:24:01 12.8 C 7.06 g/m*3 12.8 C 0 km/h
418 08-05-2010 11:36:01 14.1 C 6.31 g/m*3 14.1 C 0 km/h
419 08-05-2010 11:48:01 15.1 C 5.55 g/m*3 15.1 C 0 km/h
420 08-05-2010 12:00:01 14.8 C 5.32 g/m*3 14.8 C 0 km/h
421 08-05-2010 12:12:01 14.5 C 4.97 g/m*3 14.5 C 0 km/h
422 08-05-2010 12:24:02 15.6 C 5.19 g/m*3 15.6 C 0 km/h
423 08-05-2010 12:36:01 15 C 4.74 g/m*3 15 C 0 km/h
424 08-05-2010 12:48:03 16.3 C 5.13 g/m*3 16.3 C 0 km/h
425 08-05-2010 13:00:03 16.5 C 5.2 g/m*3 16.5 C 0 km/h
Sensor: Nr:Datum:Temp:Abs-Feuchte:Windchill:Wind:
Aussen-T/F 426 08-05-2010 13:12:02 16 C 5.31 g/m*3 16 C 0 km/h
427 08-05-2010 13:24:02 15.8 C 5.25 g/m*3 15.8 C 0 km/h
428 08-05-2010 13:36:02 17.5 C 5.37 g/m*3 17.5 C 0 km/h
429 08-05-2010 13:48:02 18.4 C 4.88 g/m*3 18.4 C 0 km/h
430 08-05-2010 14:00:02 16.4 C 4.19 g/m*3 16.4 C 0 km/h
431 08-05-2010 14:12:02 15.5 C 4.1 g/m*3 15.5 C 0 km/h
432 08-05-2010 14:24:02 15 C 4.36 g/m*3 15 C 0 km/h
433 08-05-2010 14:36:01 15.6 C 4.39 g/m*3 15.6 C 0 km/h
434 08-05-2010 14:48:02 15.6 C 4.12 g/m*3 15.6 C 0 km/h
435 08-05-2010 15:00:02 16 C 4.22 g/m*3 16 C 0 km/h
436 08-05-2010 15:12:01 16.1 C 4.25 g/m*3 16.1 C 0 km/h
437 08-05-2010 15:24:02 16 C 4.36 g/m*3 16 C 0 km/h
438 08-05-2010 15:36:02 16 C 4.36 g/m*3 16 C 0 km/h
439 08-05-2010 15:48:02 15.5 C 4.63 g/m*3 15.5 C 0 km/h
440 08-05-2010 16:00:02 16.4 C 4.61 g/m*3 16.4 C 0 km/h
441 08-05-2010 16:12:03 16.6 C 4.38 g/m*3 16.6 C 0 km/h
442 08-05-2010 16:24:02 16.4 C 4.47 g/m*3 16.4 C 0 km/h
443 08-05-2010 16:36:02 17.5 C 4.32 g/m*3 17.5 C 0 km/h
444 08-05-2010 16:48:01 17.6 C 4.2 g/m*3 17.6 C 0 km/h
445 08-05-2010 17:00:01 17.4 C 4.15 g/m*3 17.4 C 0 km/h
446 08-05-2010 17:12:02 17.5 C 4.17 g/m*3 17.5 C 0 km/h
447 08-05-2010 17:24:01 18.5 C 4.27 g/m*3 18.5 C 0 km/h
448 08-05-2010 17:36:02 17.9 C 4.12 g/m*3 17.9 C 0 km/h
449 08-05-2010 17:48:01 18.7 C 4.16 g/m*3 18.7 C 0 km/h
450 08-05-2010 18:00:01 19.2 C 4.12 g/m*3 19.2 C 0 km/h
Sensor: Nr:Datum:Temp:Abs-Feuchte:Windchill:Wind:
Aussen-T/F 451 08-05-2010 18:12:02 19.9 C 3.95 g/m*3 19.9 C 0 km/h
452 08-05-2010 18:24:01 19.4 C 4 g/m*3 19.4 C 0 km/h
453 08-05-2010 18:36:02 19.5 C 4.2 g/m*3 19.5 C 0 km/h
454 08-05-2010 18:48:01 19.8 C 4.27 g/m*3 19.8 C 0 km/h
455 08-05-2010 19:00:01 19.1 C 4.1 g/m*3 19.1 C 0 km/h
456 08-05-2010 19:12:02 18.8 C 4.03 g/m*3 18.8 C 0 km/h
457 08-05-2010 19:24:02 18.4 C 4.25 g/m*3 18.4 C 0 km/h
458 08-05-2010 19:36:02 17.5 C 4.47 g/m*3 17.5 C 0 km/h
459 08-05-2010 19:48:01 17.6 C 4.65 g/m*3 17.6 C 0 km/h
460 08-05-2010 20:00:01 17.3 C 5.16 g/m*3 17.3 C 0 km/h
461 08-05-2010 20:12:02 16.5 C 6.04 g/m*3 16.5 C 0 km/h
462 08-05-2010 20:24:02 15.7 C 6.42 g/m*3 15.7 C 0 km/h
463 08-05-2010 20:36:02 15.1 C 6.06 g/m*3 15.1 C 0 km/h
464 08-05-2010 20:48:01 14.3 C 6.02 g/m*3 14.3 C 0 km/h
465 08-05-2010 21:00:01 13.8 C 5.96 g/m*3 13.8 C 0 km/h
466 08-05-2010 21:12:02 13.5 C 6.08 g/m*3 13.5 C 0 km/h
467 08-05-2010 21:24:02 13.5 C 6.43 g/m*3 13.5 C 0 km/h
468 08-05-2010 21:36:02 13.5 C 6.08 g/m*3 13.5 C 0 km/h
469 08-05-2010 21:48:02 12.9 C 5.97 g/m*3 12.9 C 0 km/h
470 08-05-2010 22:00:02 12.4 C 5.9 g/m*3 12.4 C 0 km/h
471 08-05-2010 22:12:02 11.9 C 6.04 g/m*3 11.9 C 0 km/h
472 08-05-2010 22:24:02 11.7 C 5.86 g/m*3 11.7 C 0 km/h
473 08-05-2010 22:36:01 11.8 C 6.21 g/m*3 11.8 C 0 km/h
474 08-05-2010 22:48:02 12 C 6.39 g/m*3 12 C 0 km/h
475 08-05-2010 23:00:02 11.8 C 6.21 g/m*3 11.8 C 0 km/h
Sensor: Nr:Datum:Temp:Abs-Feuchte:Windchill:Wind:
Aussen-T/F 476 08-05-2010 23:12:01 11.6 C 6.34 g/m*3 11.6 C 0 km/h
477 08-05-2010 23:24:02 11 C 6.21 g/m*3 11 C 0 km/h
478 08-05-2010 23:36:01 10.6 C 6.25 g/m*3 10.6 C 0 km/h
479 08-05-2010 23:48:02 10.3 C 6.22 g/m*3 10.3 C 0 km/h
480 09-05-2010 00:00:02 10.2 C 6.38 g/m*3 10.2 C 0 km/h
481 09-05-2010 00:12:02 10 C 6.39 g/m*3 10 C 0 km/h
482 09-05-2010 00:24:03 9.8 C 6.49 g/m*3 9.8 C 0 km/h
483 09-05-2010 00:36:02 9.6 C 6.41 g/m*3 9.6 C 0 km/h
484 09-05-2010 00:48:02 9.4 C 6.42 g/m*3 9.4 C 0 km/h
485 09-05-2010 01:00:02 9.1 C 6.39 g/m*3 9.1 C 0 km/h
486 09-05-2010 01:12:02 9 C 6.52 g/m*3 9 C 0 km/h
487 09-05-2010 01:24:03 8.7 C 6.49 g/m*3 8.7 C 0 km/h
488 09-05-2010 01:36:02 8.6 C 6.44 g/m*3 8.6 C 0 km/h
489 09-05-2010 01:48:03 8.7 C 6.57 g/m*3 8.7 C 0 km/h
490 09-05-2010 02:00:03 8.8 C 6.7 g/m*3 8.8 C 0 km/h
491 09-05-2010 02:12:02 8.7 C 6.66 g/m*3 8.7 C 0 km/h
492 09-05-2010 02:24:02 8.7 C 6.66 g/m*3 8.7 C 0 km/h
493 09-05-2010 02:36:02 8.4 C 6.53 g/m*3 8.4 C 0 km/h
494 09-05-2010 02:49:04 8.5 C 6.57 g/m*3 8.5 C 0 km/h
495 09-05-2010 03:01:04 8.5 C 6.66 g/m*3 8.5 C 0 km/h
496 09-05-2010 03:13:03 8.3 C 6.57 g/m*3 8.3 C 0 km/h
497 09-05-2010 03:25:03 8.5 C 6.66 g/m*3 8.5 C 0 km/h
498 09-05-2010 03:37:01 8.5 C 6.66 g/m*3 8.5 C 0 km/h
499 09-05-2010 03:49:01 8.5 C 6.66 g/m*3 8.5 C 0 km/h
500 09-05-2010 04:01:01 8.6 C 6.7 g/m*3 8.6 C 0 km/h
Sensor: Nr:Datum:Temp:Abs-Feuchte:Windchill:Wind:
Aussen-T/F 501 09-05-2010 04:13:01 8.6 C 6.7 g/m*3 8.6 C 0 km/h
502 09-05-2010 04:25:02 8.5 C 6.66 g/m*3 8.5 C 0 km/h
503 09-05-2010 04:37:01 8.5 C 6.66 g/m*3 8.5 C 0 km/h
504 09-05-2010 04:49:03 8.3 C 6.57 g/m*3 8.3 C 0 km/h
505 09-05-2010 05:01:02 8 C 6.45 g/m*3 8 C 0 km/h
506 09-05-2010 05:13:02 7.8 C 6.53 g/m*3 7.8 C 0 km/h
507 09-05-2010 05:25:02 7.6 C 6.53 g/m*3 7.6 C 0 km/h
508 09-05-2010 05:37:02 7.4 C 6.52 g/m*3 7.4 C 0 km/h
509 09-05-2010 05:49:02 7.4 C 6.52 g/m*3 7.4 C 0 km/h
510 09-05-2010 06:01:02 7.6 C 6.69 g/m*3 7.6 C 0 km/h
511 09-05-2010 06:13:02 7.9 C 6.82 g/m*3 7.9 C 0 km/h
512 09-05-2010 06:25:02 8 C 6.7 g/m*3 8 C 0 km/h
513 09-05-2010 06:37:02 8.1 C 6.74 g/m*3 8.1 C 0 km/h
514 09-05-2010 06:49:02 8.3 C 6.83 g/m*3 8.3 C 0 km/h
515 09-05-2010 07:01:02 8.5 C 6.92 g/m*3 8.5 C 0 km/h
516 09-05-2010 07:13:02 8.6 C 6.87 g/m*3 8.6 C 0 km/h
517 09-05-2010 07:25:01 8.7 C 6.83 g/m*3 8.7 C 0 km/h
518 09-05-2010 07:37:02 9.1 C 6.92 g/m*3 9.1 C 0 km/h
519 09-05-2010 07:49:02 9.1 C 6.83 g/m*3 9.1 C 0 km/h
520 09-05-2010 08:01:02 9.6 C 6.96 g/m*3 9.6 C 0 km/h
521 09-05-2010 08:13:02 9.6 C 6.96 g/m*3 9.6 C 0 km/h
522 09-05-2010 08:25:02 9.6 C 6.87 g/m*3 9.6 C 0 km/h
523 09-05-2010 08:37:02 10 C 7.05 g/m*3 10 C 0 km/h
524 09-05-2010 08:49:02 10.4 C 7.04 g/m*3 10.4 C 0 km/h
525 09-05-2010 09:01:02 10.8 C 7.02 g/m*3 10.8 C 0 km/h
Sensor: Nr:Datum:Temp:Abs-Feuchte:Windchill:Wind:
Aussen-T/F 526 09-05-2010 09:13:02 10.9 C 7.16 g/m*3 10.9 C 0 km/h
527 09-05-2010 09:25:02 11.1 C 6.95 g/m*3 11.1 C 0 km/h
528 09-05-2010 09:37:03 11.7 C 7.11 g/m*3 11.7 C 0 km/h
529 09-05-2010 09:49:02 12 C 6.93 g/m*3 12 C 0 km/h
530 09-05-2010 10:01:01 12.4 C 6.99 g/m*3 12.4 C 0 km/h
531 09-05-2010 10:13:01 12.7 C 7.12 g/m*3 12.7 C 0 km/h
532 09-05-2010 10:25:01 12.2 C 7.23 g/m*3 12.2 C 0 km/h
533 09-05-2010 10:37:02 12.2 C 7.55 g/m*3 12.2 C 0 km/h
534 09-05-2010 10:49:02 12 C 7.35 g/m*3 12 C 0 km/h
535 09-05-2010 11:01:01 12.2 C 7.55 g/m*3 12.2 C 0 km/h
536 09-05-2010 11:13:01 12.4 C 7.54 g/m*3 12.4 C 0 km/h
537 09-05-2010 11:25:02 12.3 C 7.38 g/m*3 12.3 C 0 km/h
538 09-05-2010 11:37:01 12.3 C 7.28 g/m*3 12.3 C 0 km/h
539 09-05-2010 11:49:02 12.2 C 7.23 g/m*3 12.2 C 0 km/h
540 09-05-2010 12:01:02 12.3 C 7.28 g/m*3 12.3 C 0 km/h
541 09-05-2010 12:13:02 13 C 7.37 g/m*3 13 C 0 km/h
542 09-05-2010 12:25:02 13.4 C 7.21 g/m*3 13.4 C 0 km/h
543 09-05-2010 12:37:02 14 C 7.24 g/m*3 14 C 0 km/h
544 09-05-2010 12:49:02 14.4 C 7.17 g/m*3 14.4 C 0 km/h
545 09-05-2010 13:01:01 15 C 6.92 g/m*3 15 C 0 km/h
546 09-05-2010 13:13:01 16.2 C 7.03 g/m*3 16.2 C 0 km/h
547 09-05-2010 13:25:01 17.2 C 6.59 g/m*3 17.2 C 0 km/h
548 09-05-2010 13:37:02 18.5 C 6.33 g/m*3 18.5 C 0 km/h
549 09-05-2010 13:49:02 18.2 C 6.22 g/m*3 18.2 C 0 km/h
550 09-05-2010 14:01:02 17.9 C 6.11 g/m*3 17.9 C 0 km/h
Sensor: Nr:Datum:Temp:Abs-Feuchte:Windchill:Wind:
Aussen-T/F 551 09-05-2010 14:13:02 17.5 C 6.11 g/m*3 17.5 C 0 km/h
552 09-05-2010 14:25:02 16.7 C 6.11 g/m*3 16.7 C 0 km/h
553 09-05-2010 14:37:01 16.7 C 6.11 g/m*3 16.7 C 0 km/h
554 09-05-2010 14:49:02 17 C 6.22 g/m*3 17 C 0 km/h
555 09-05-2010 15:01:01 17 C 6.22 g/m*3 17 C 0 km/h
556 09-05-2010 15:13:01 17.3 C 6.33 g/m*3 17.3 C 0 km/h
557 09-05-2010 15:25:02 17.6 C 6.3 g/m*3 17.6 C 0 km/h
558 09-05-2010 15:37:01 17.8 C 6.37 g/m*3 17.8 C 0 km/h
559 09-05-2010 15:49:03 17.9 C 6.26 g/m*3 17.9 C 0 km/h
560 09-05-2010 16:01:02 18 C 6.3 g/m*3 18 C 0 km/h
561 09-05-2010 16:13:02 18.7 C 6.4 g/m*3 18.7 C 0 km/h
562 09-05-2010 16:25:02 19.1 C 6.23 g/m*3 19.1 C 0 km/h
563 09-05-2010 16:37:02 18.7 C 6.08 g/m*3 18.7 C 0 km/h
564 09-05-2010 16:49:02 18 C 5.68 g/m*3 18 C 0 km/h
565 09-05-2010 17:01:02 17.8 C 5.77 g/m*3 17.8 C 0 km/h
566 09-05-2010 17:13:02 19.6 C 5.74 g/m*3 19.6 C 0 km/h
567 09-05-2010 17:25:02 19.5 C 5.03 g/m*3 19.5 C 0 km/h
568 09-05-2010 17:37:02 19.1 C 5.41 g/m*3 19.1 C 0 km/h
569 09-05-2010 17:49:02 19.4 C 5.17 g/m*3 19.4 C 0 km/h
570 09-05-2010 18:01:02 19.5 C 5.71 g/m*3 19.5 C 0 km/h
571 09-05-2010 18:13:02 18.9 C 5.67 g/m*3 18.9 C 0 km/h
572 09-05-2010 18:25:03 18.7 C 5.76 g/m*3 18.7 C 0 km/h
573 09-05-2010 18:37:02 18.3 C 5.79 g/m*3 18.3 C 0 km/h
574 09-05-2010 18:49:03 18.1 C 6.03 g/m*3 18.1 C 0 km/h
575 09-05-2010 19:01:02 17.6 C 6.6 g/m*3 17.6 C 0 km/h
Sensor: Nr:Datum:Temp:Abs-Feuchte:Windchill:Wind:
Aussen-T/F 576 09-05-2010 19:13:03 17 C 6.8 g/m*3 17 C 0 km/h
577 09-05-2010 19:25:02 17 C 6.95 g/m*3 17 C 0 km/h
578 09-05-2010 19:37:02 16.6 C 6.92 g/m*3 16.6 C 0 km/h
579 09-05-2010 19:49:01 16.2 C 6.9 g/m*3 16.2 C 0 km/h
580 09-05-2010 20:01:02 15.8 C 7 g/m*3 15.8 C 0 km/h
581 09-05-2010 20:13:02 15.2 C 6.88 g/m*3 15.2 C 0 km/h
582 09-05-2010 20:25:01 14.8 C 6.84 g/m*3 14.8 C 0 km/h
583 09-05-2010 20:37:01 14.3 C 6.88 g/m*3 14.3 C 0 km/h
584 09-05-2010 20:49:01 14 C 6.75 g/m*3 14 C 0 km/h
585 09-05-2010 21:01:02 13.4 C 6.97 g/m*3 13.4 C 0 km/h
586 09-05-2010 21:13:02 12.8 C 7.06 g/m*3 12.8 C 0 km/h
587 09-05-2010 21:25:02 12.5 C 7.15 g/m*3 12.5 C 0 km/h
588 09-05-2010 21:37:02 12.1 C 7.08 g/m*3 12.1 C 0 km/h
589 09-05-2010 21:49:02 11.7 C 7.11 g/m*3 11.7 C 0 km/h
590 09-05-2010 22:01:03 11.5 C 7.13 g/m*3 11.5 C 0 km/h
591 09-05-2010 22:13:03 11.3 C 7.14 g/m*3 11.3 C 0 km/h
592 09-05-2010 22:25:02 11.1 C 7.05 g/m*3 11.1 C 0 km/h
593 09-05-2010 22:38:04 10.9 C 6.96 g/m*3 10.9 C 0 km/h
594 09-05-2010 22:50:04 10.8 C 7.02 g/m*3 10.8 C 0 km/h
595 09-05-2010 23:02:04 10.8 C 7.12 g/m*3 10.8 C 0 km/h
596 09-05-2010 23:14:04 10.9 C 7.06 g/m*3 10.9 C 0 km/h
597 09-05-2010 23:26:05 10.7 C 7.07 g/m*3 10.7 C 0 km/h
598 09-05-2010 23:38:05 10.8 C 7.22 g/m*3 10.8 C 0 km/h
599 09-05-2010 23:50:05 10.5 C 7.08 g/m*3 10.5 C 0 km/h
600 10-05-2010 00:02:05 10.4 C 7.13 g/m*3 10.4 C 0 km/h
Sensor: Nr:Datum:Temp:Abs-Feuchte:Windchill:Wind:
Aussen-T/F 601 10-05-2010 00:14:05 10.5 C 7.18 g/m*3 10.5 C 0 km/h
602 10-05-2010 00:26:05 10.3 C 7.09 g/m*3 10.3 C 0 km/h
603 10-05-2010 00:38:05 10.1 C 7.09 g/m*3 10.1 C 0 km/h
604 10-05-2010 00:50:05 9.8 C 7.24 g/m*3 9.8 C 0 km/h
605 10-05-2010 01:02:05 9.8 C 7.24 g/m*3 9.8 C 0 km/h
606 10-05-2010 01:14:05 9.8 C 7.33 g/m*3 9.8 C 0 km/h
607 10-05-2010 01:26:05 9.9 C 7.38 g/m*3 9.9 C 0 km/h
608 10-05-2010 01:38:05 10 C 7.24 g/m*3 10 C 0 km/h
609 10-05-2010 01:50:05 9.8 C 7.24 g/m*3 9.8 C 0 km/h
610 10-05-2010 02:02:05 9.7 C 7.19 g/m*3 9.7 C 0 km/h
611 10-05-2010 02:14:05 9.5 C 7.19 g/m*3 9.5 C 0 km/h
612 10-05-2010 02:26:05 9.4 C 7.24 g/m*3 9.4 C 0 km/h
613 10-05-2010 02:38:05 9.4 C 7.24 g/m*3 9.4 C 0 km/h
614 10-05-2010 02:50:05 9.4 C 7.33 g/m*3 9.4 C 0 km/h
615 10-05-2010 03:02:05 9.2 C 7.23 g/m*3 9.2 C 0 km/h
616 10-05-2010 03:14:05 9 C 7.14 g/m*3 9 C 0 km/h
617 10-05-2010 03:26:05 8.8 C 7.14 g/m*3 8.8 C 0 km/h
618 10-05-2010 03:38:05 8.7 C 7.18 g/m*3 8.7 C 0 km/h
619 10-05-2010 03:50:06 8.7 C 7.26 g/m*3 8.7 C 0 km/h
620 10-05-2010 04:02:06 8.6 C 7.22 g/m*3 8.6 C 0 km/h
621 10-05-2010 04:14:06 8.6 C 7.22 g/m*3 8.6 C 0 km/h
622 10-05-2010 04:26:06 8.6 C 7.3 g/m*3 8.6 C 0 km/h
623 10-05-2010 04:38:06 8.6 C 7.3 g/m*3 8.6 C 0 km/h
624 10-05-2010 04:50:06 8.7 C 7.26 g/m*3 8.7 C 0 km/h
625 10-05-2010 05:02:06 8.6 C 7.22 g/m*3 8.6 C 0 km/h
Sensor: Nr:Datum:Temp:Abs-Feuchte:Windchill:Wind:
Aussen-T/F 626 10-05-2010 05:14:06 8.6 C 7.22 g/m*3 8.6 C 0 km/h
627 10-05-2010 05:26:06 8.6 C 7.3 g/m*3 8.6 C 0 km/h
628 10-05-2010 05:38:06 8.7 C 7.35 g/m*3 8.7 C 0 km/h
629 10-05-2010 05:50:06 8.8 C 7.31 g/m*3 8.8 C 0 km/h
630 10-05-2010 06:02:06 8.7 C 7.26 g/m*3 8.7 C 0 km/h
631 10-05-2010 06:14:06 8.7 C 7.26 g/m*3 8.7 C 0 km/h
632 10-05-2010 06:26:06 8.8 C 7.31 g/m*3 8.8 C 0 km/h
633 10-05-2010 06:38:04 8.9 C 7.36 g/m*3 8.9 C 0 km/h
634 10-05-2010 06:50:02 9 C 7.32 g/m*3 9 C 0 km/h
635 10-05-2010 07:02:02 9.1 C 7.36 g/m*3 9.1 C 0 km/h
636 10-05-2010 07:14:02 9.4 C 7.51 g/m*3 9.4 C 0 km/h
637 10-05-2010 07:26:01 9.6 C 7.6 g/m*3 9.6 C 0 km/h
638 10-05-2010 07:38:02 9.8 C 7.7 g/m*3 9.8 C 0 km/h
639 10-05-2010 07:50:02 10.2 C 7.71 g/m*3 10.2 C 0 km/h
640 10-05-2010 08:02:02 10.5 C 7.76 g/m*3 10.5 C 0 km/h
641 10-05-2010 08:14:02 10.6 C 7.71 g/m*3 10.6 C 0 km/h
642 10-05-2010 08:26:02 10.7 C 7.66 g/m*3 10.7 C 0 km/h
643 10-05-2010 08:38:02 10.7 C 7.46 g/m*3 10.7 C 0 km/h
644 10-05-2010 08:50:02 10.7 C 7.37 g/m*3 10.7 C 0 km/h
645 10-05-2010 09:02:02 10.8 C 7.41 g/m*3 10.8 C 0 km/h
646 10-05-2010 09:14:03 10.8 C 7.22 g/m*3 10.8 C 0 km/h
647 10-05-2010 09:26:02 10.7 C 7.27 g/m*3 10.7 C 0 km/h
648 10-05-2010 09:38:02 11 C 7.21 g/m*3 11 C 0 km/h
649 10-05-2010 09:50:02 11.1 C 7.25 g/m*3 11.1 C 0 km/h
650 10-05-2010 10:02:02 11.1 C 7.15 g/m*3 11.1 C 0 km/h
Sensor: Nr:Datum:Temp:Abs-Feuchte:Windchill:Wind:
Aussen-T/F 651 10-05-2010 10:14:02 11.4 C 7.08 g/m*3 11.4 C 0 km/h
652 10-05-2010 10:26:03 11.2 C 7.1 g/m*3 11.2 C 0 km/h
653 10-05-2010 10:38:02 11.6 C 7.17 g/m*3 11.6 C 0 km/h
654 10-05-2010 10:50:02 11.4 C 6.98 g/m*3 11.4 C 0 km/h
655 10-05-2010 11:02:02 11.5 C 7.13 g/m*3 11.5 C 0 km/h
656 10-05-2010 11:14:02 11.5 C 7.02 g/m*3 11.5 C 0 km/h
657 10-05-2010 11:26:02 11.5 C 7.02 g/m*3 11.5 C 0 km/h
658 10-05-2010 11:38:02 11.3 C 7.04 g/m*3 11.3 C 0 km/h
659 10-05-2010 11:50:02 11.7 C 7.22 g/m*3 11.7 C 0 km/h
660 10-05-2010 12:02:03 11.7 C 7.11 g/m*3 11.7 C 0 km/h
661 10-05-2010 12:14:03 11.6 C 6.96 g/m*3 11.6 C 0 km/h
662 10-05-2010 12:26:02 12.7 C 7.01 g/m*3 12.7 C 0 km/h
663 10-05-2010 12:38:03 12.9 C 6.76 g/m*3 12.9 C 0 km/h
664 10-05-2010 12:50:02 14.1 C 6.8 g/m*3 14.1 C 0 km/h
665 10-05-2010 13:02:02 13.5 C 6.43 g/m*3 13.5 C 0 km/h
666 10-05-2010 13:14:02 13.5 C 6.43 g/m*3 13.5 C 0 km/h
667 10-05-2010 13:26:01 14.7 C 6.17 g/m*3 14.7 C 0 km/h
668 10-05-2010 13:38:02 15.3 C 6.4 g/m*3 15.3 C 0 km/h
669 10-05-2010 13:50:02 15.4 C 6.18 g/m*3 15.4 C 0 km/h
670 10-05-2010 14:02:02 15.3 C 6.01 g/m*3 15.3 C 0 km/h
671 10-05-2010 14:14:02 15.5 C 6.08 g/m*3 15.5 C 0 km/h
672 10-05-2010 14:26:02 14.8 C 5.95 g/m*3 14.8 C 0 km/h
673 10-05-2010 14:38:02 14.7 C 5.92 g/m*3 14.7 C 0 km/h
674 10-05-2010 14:50:02 14.7 C 5.92 g/m*3 14.7 C 0 km/h
675 10-05-2010 15:02:02 15 C 5.77 g/m*3 15 C 0 km/h
Sensor: Nr:Datum:Temp:Abs-Feuchte:Windchill:Wind:
Aussen-T/F 676 10-05-2010 15:14:02 15.4 C 5.78 g/m*3 15.4 C 0 km/h
677 10-05-2010 15:26:02 15.1 C 5.93 g/m*3 15.1 C 0 km/h
678 10-05-2010 15:38:02 15.3 C 5.62 g/m*3 15.3 C 0 km/h
679 10-05-2010 15:50:02 14.7 C 5.79 g/m*3 14.7 C 0 km/h
680 10-05-2010 16:02:02 15.2 C 5.84 g/m*3 15.2 C 0 km/h
681 10-05-2010 16:14:02 15.8 C 5.79 g/m*3 15.8 C 0 km/h
682 10-05-2010 16:26:02 15.7 C 5.49 g/m*3 15.7 C 0 km/h
683 10-05-2010 16:38:02 16.2 C 5.52 g/m*3 16.2 C 0 km/h
684 10-05-2010 16:50:02 16.3 C 5.13 g/m*3 16.3 C 0 km/h
685 10-05-2010 17:02:02 15.5 C 5.42 g/m*3 15.5 C 0 km/h
686 10-05-2010 17:14:02 15.6 C 5.45 g/m*3 15.6 C 0 km/h
687 10-05-2010 17:26:02 16 C 5.31 g/m*3 16 C 0 km/h
688 10-05-2010 17:38:02 16 C 5.31 g/m*3 16 C 0 km/h
689 10-05-2010 17:50:01 15.8 C 5.38 g/m*3 15.8 C 0 km/h
690 10-05-2010 18:02:02 16.4 C 5.02 g/m*3 16.4 C 0 km/h
691 10-05-2010 18:14:02 17.3 C 5.01 g/m*3 17.3 C 0 km/h
692 10-05-2010 18:26:02 17.6 C 5.1 g/m*3 17.6 C 0 km/h
693 10-05-2010 18:38:01 17.1 C 4.66 g/m*3 17.1 C 0 km/h
694 10-05-2010 18:50:02 15.8 C 4.71 g/m*3 15.8 C 0 km/h
695 10-05-2010 19:02:01 15.4 C 4.73 g/m*3 15.4 C 0 km/h
696 10-05-2010 19:14:01 15.6 C 4.92 g/m*3 15.6 C 0 km/h
697 10-05-2010 19:26:02 14.9 C 4.97 g/m*3 14.9 C 0 km/h
698 10-05-2010 19:38:01 14.7 C 5.04 g/m*3 14.7 C 0 km/h
699 10-05-2010 19:50:02 14.5 C 5.1 g/m*3 14.5 C 0 km/h
700 10-05-2010 20:02:01 14.5 C 4.97 g/m*3 14.5 C 0 km/h
Sensor: Nr:Datum:Temp:Abs-Feuchte:Windchill:Wind:
Aussen-T/F 701 10-05-2010 20:14:01 14.5 C 4.97 g/m*3 14.5 C 0 km/h
702 10-05-2010 20:26:02 14.3 C 5.04 g/m*3 14.3 C 0 km/h
703 10-05-2010 20:38:01 13.7 C 5.09 g/m*3 13.7 C 0 km/h
704 10-05-2010 20:50:02 13.1 C 5.14 g/m*3 13.1 C 0 km/h
705 10-05-2010 21:02:02 12.8 C 5.38 g/m*3 12.8 C 0 km/h
706 10-05-2010 21:14:02 12.3 C 5.43 g/m*3 12.3 C 0 km/h
707 10-05-2010 21:26:02 11.9 C 5.51 g/m*3 11.9 C 0 km/h
708 10-05-2010 21:38:02 11.6 C 5.4 g/m*3 11.6 C 0 km/h
709 10-05-2010 21:50:02 11.5 C 5.58 g/m*3 11.5 C 0 km/h
710 10-05-2010 22:02:02 11.5 C 5.68 g/m*3 11.5 C 0 km/h
711 10-05-2010 22:14:02 11.5 C 5.58 g/m*3 11.5 C 0 km/h
712 10-05-2010 22:27:04 11.2 C 5.57 g/m*3 11.2 C 0 km/h
713 10-05-2010 22:39:04 11.1 C 5.54 g/m*3 11.1 C 0 km/h
714 10-05-2010 22:51:04 11.8 C 5.79 g/m*3 11.8 C 0 km/h
715 10-05-2010 23:03:04 11.6 C 5.92 g/m*3 11.6 C 0 km/h
716 10-05-2010 23:15:05 11.2 C 5.68 g/m*3 11.2 C 0 km/h
717 10-05-2010 23:27:05 11.3 C 5.81 g/m*3 11.3 C 0 km/h
718 10-05-2010 23:39:05 11.4 C 5.85 g/m*3 11.4 C 0 km/h
719 10-05-2010 23:51:05 11.2 C 5.78 g/m*3 11.2 C 0 km/h
720 11-05-2010 00:03:05 11 C 5.71 g/m*3 11 C 0 km/h
721 11-05-2010 00:15:05 11.1 C 5.74 g/m*3 11.1 C 0 km/h
722 11-05-2010 00:27:05 10.7 C 5.7 g/m*3 10.7 C 0 km/h
723 11-05-2010 00:39:05 10.8 C 5.83 g/m*3 10.8 C 0 km/h
724 11-05-2010 00:51:05 10.8 C 5.83 g/m*3 10.8 C 0 km/h
725 11-05-2010 01:03:05 10.4 C 5.88 g/m*3 10.4 C 0 km/h
Sensor: Nr:Datum:Temp:Abs-Feuchte:Windchill:Wind:
Aussen-T/F 726 11-05-2010 01:15:05 10.5 C 5.82 g/m*3 10.5 C 0 km/h
727 11-05-2010 01:27:05 10.5 C 5.92 g/m*3 10.5 C 0 km/h
728 11-05-2010 01:39:05 10.4 C 5.98 g/m*3 10.4 C 0 km/h
729 11-05-2010 01:51:05 10.3 C 6.03 g/m*3 10.3 C 0 km/h
730 11-05-2010 02:03:05 10.1 C 5.96 g/m*3 10.1 C 0 km/h
731 11-05-2010 02:15:05 10 C 6.01 g/m*3 10 C 0 km/h
732 11-05-2010 02:27:05 10.1 C 6.05 g/m*3 10.1 C 0 km/h
733 11-05-2010 02:39:05 10.1 C 6.05 g/m*3 10.1 C 0 km/h
734 11-05-2010 02:51:05 10.2 C 6.09 g/m*3 10.2 C 0 km/h
735 11-05-2010 03:03:05 10 C 6.11 g/m*3 10 C 0 km/h
736 11-05-2010 03:15:05 9.7 C 5.99 g/m*3 9.7 C 0 km/h
737 11-05-2010 03:27:05 9.9 C 6.07 g/m*3 9.9 C 0 km/h
738 11-05-2010 03:39:06 9.7 C 6.27 g/m*3 9.7 C 0 km/h
739 11-05-2010 03:51:06 9.6 C 6.32 g/m*3 9.6 C 0 km/h
740 11-05-2010 04:03:06 9.7 C 6.45 g/m*3 9.7 C 0 km/h
741 11-05-2010 04:15:06 9.5 C 6.1 g/m*3 9.5 C 0 km/h
742 11-05-2010 04:27:06 9.4 C 6.06 g/m*3 9.4 C 0 km/h
743 11-05-2010 04:39:06 9.3 C 6.02 g/m*3 9.3 C 0 km/h
744 11-05-2010 04:51:06 9.4 C 6.15 g/m*3 9.4 C 0 km/h
745 11-05-2010 05:03:06 9.4 C 6.15 g/m*3 9.4 C 0 km/h
746 11-05-2010 05:15:06 9.3 C 6.11 g/m*3 9.3 C 0 km/h
747 11-05-2010 05:27:06 9.5 C 6.19 g/m*3 9.5 C 0 km/h
748 11-05-2010 05:39:06 9.4 C 6.15 g/m*3 9.4 C 0 km/h
749 11-05-2010 05:51:06 9.3 C 6.2 g/m*3 9.3 C 0 km/h
750 11-05-2010 06:03:06 9.4 C 6.24 g/m*3 9.4 C 0 km/h
Sensor: Nr:Datum:Temp:Abs-Feuchte:Windchill:Wind:
Aussen-T/F 751 11-05-2010 06:15:06 9.3 C 6.11 g/m*3 9.3 C 0 km/h
752 11-05-2010 06:27:06 9.3 C 6.2 g/m*3 9.3 C 0 km/h
753 11-05-2010 06:39:06 9.1 C 6.12 g/m*3 9.1 C 0 km/h
754 11-05-2010 06:51:02 9.1 C 6.12 g/m*3 9.1 C 0 km/h
755 11-05-2010 07:03:01 9.3 C 6.29 g/m*3 9.3 C 0 km/h
756 11-05-2010 07:15:02 9.5 C 6.37 g/m*3 9.5 C 0 km/h
757 11-05-2010 07:27:02 9.6 C 6.32 g/m*3 9.6 C 0 km/h
758 11-05-2010 07:39:02 9.7 C 6.27 g/m*3 9.7 C 0 km/h
759 11-05-2010 07:51:01 9.9 C 6.35 g/m*3 9.9 C 0 km/h
760 11-05-2010 08:03:02 10.1 C 6.24 g/m*3 10.1 C 0 km/h
761 11-05-2010 08:15:01 10.5 C 6.3 g/m*3 10.5 C 0 km/h
762 11-05-2010 08:27:01 10.7 C 6.19 g/m*3 10.7 C 0 km/h
763 11-05-2010 08:39:01 11.2 C 6.28 g/m*3 11.2 C 0 km/h
764 11-05-2010 08:51:01 12 C 6.29 g/m*3 12 C 0 km/h
765 11-05-2010 09:03:02 11.7 C 6.07 g/m*3 11.7 C 0 km/h
766 11-05-2010 09:15:01 11.7 C 6.07 g/m*3 11.7 C 0 km/h
767 11-05-2010 09:27:01 11.9 C 6.14 g/m*3 11.9 C 0 km/h
768 11-05-2010 09:39:02 12.8 C 6.05 g/m*3 12.8 C 0 km/h
769 11-05-2010 09:51:01 12.7 C 5.79 g/m*3 12.7 C 0 km/h
770 11-05-2010 10:03:02 12.8 C 6.16 g/m*3 12.8 C 0 km/h
771 11-05-2010 10:15:02 13 C 6.01 g/m*3 13 C 0 km/h
772 11-05-2010 10:27:02 13 C 5.9 g/m*3 13 C 0 km/h
773 11-05-2010 10:39:01 12.3 C 5.97 g/m*3 12.3 C 0 km/h
774 11-05-2010 10:51:01 11.8 C 6.21 g/m*3 11.8 C 0 km/h
775 11-05-2010 11:03:01 12 C 6.07 g/m*3 12 C 0 km/h
Sensor: Nr:Datum:Temp:Abs-Feuchte:Windchill:Wind:
Aussen-T/F 776 11-05-2010 11:15:02 12 C 6.07 g/m*3 12 C 0 km/h
777 11-05-2010 11:27:02 12 C 6.18 g/m*3 12 C 0 km/h
778 11-05-2010 11:39:02 12.5 C 6.38 g/m*3 12.5 C 0 km/h
779 11-05-2010 11:51:02 14.1 C 6.19 g/m*3 14.1 C 0 km/h
780 11-05-2010 12:03:02 14.1 C 5.95 g/m*3 14.1 C 0 km/h
781 11-05-2010 12:15:02 13.7 C 6.28 g/m*3 13.7 C 0 km/h
782 11-05-2010 12:27:02 14.8 C 6.33 g/m*3 14.8 C 0 km/h
783 11-05-2010 12:39:01 14.1 C 5.95 g/m*3 14.1 C 0 km/h
784 11-05-2010 12:51:02 14.3 C 6.27 g/m*3 14.3 C 0 km/h
785 11-05-2010 13:03:01 13.4 C 6.16 g/m*3 13.4 C 0 km/h
786 11-05-2010 13:15:01 13.7 C 6.39 g/m*3 13.7 C 0 km/h
787 11-05-2010 13:27:01 14.2 C 6.23 g/m*3 14.2 C 0 km/h
788 11-05-2010 13:39:01 14.1 C 6.19 g/m*3 14.1 C 0 km/h
789 11-05-2010 13:51:02 13.3 C 6.35 g/m*3 13.3 C 0 km/h
790 11-05-2010 14:03:01 14.1 C 6.43 g/m*3 14.1 C 0 km/h
791 11-05-2010 14:15:01 14 C 6.27 g/m*3 14 C 0 km/h
792 11-05-2010 14:27:01 14.1 C 6.43 g/m*3 14.1 C 0 km/h
793 11-05-2010 14:39:02 14 C 6.39 g/m*3 14 C 0 km/h
794 11-05-2010 14:51:02 14 C 6.51 g/m*3 14 C 0 km/h
795 11-05-2010 15:03:02 14.4 C 6.55 g/m*3 14.4 C 0 km/h
796 11-05-2010 15:15:02 14.1 C 6.31 g/m*3 14.1 C 0 km/h
797 11-05-2010 15:27:02 14.7 C 6.55 g/m*3 14.7 C 0 km/h
798 11-05-2010 15:39:02 14.5 C 6.34 g/m*3 14.5 C 0 km/h
799 11-05-2010 15:51:02 14.3 C 6.39 g/m*3 14.3 C 0 km/h
800 11-05-2010 16:03:03 14.3 C 6.51 g/m*3 14.3 C 0 km/h
Sensor: Nr:Datum:Temp:Abs-Feuchte:Windchill:Wind:
Aussen-T/F 801 11-05-2010 16:15:02 14.8 C 6.71 g/m*3 14.8 C 0 km/h
802 11-05-2010 16:27:02 15.6 C 6.65 g/m*3 15.6 C 0 km/h
803 11-05-2010 16:39:03 15.9 C 6.5 g/m*3 15.9 C 0 km/h
804 11-05-2010 16:51:01 15.6 C 6.52 g/m*3 15.6 C 0 km/h
805 11-05-2010 17:03:02 14.9 C 6.75 g/m*3 14.9 C 0 km/h
806 11-05-2010 17:15:01 15.1 C 6.58 g/m*3 15.1 C 0 km/h
807 11-05-2010 17:27:01 14.7 C 6.8 g/m*3 14.7 C 0 km/h
808 11-05-2010 17:39:02 14.8 C 6.71 g/m*3 14.8 C 0 km/h
809 11-05-2010 17:51:01 14.7 C 6.8 g/m*3 14.7 C 0 km/h
810 11-05-2010 18:03:02 14.5 C 6.96 g/m*3 14.5 C 0 km/h
811 11-05-2010 18:15:02 13.9 C 7.07 g/m*3 13.9 C 0 km/h
812 11-05-2010 18:27:02 12.5 C 7.48 g/m*3 12.5 C 0 km/h
813 11-05-2010 18:39:02 11.9 C 8.05 g/m*3 11.9 C 0 km/h
814 11-05-2010 18:51:01 11.6 C 8.21 g/m*3 11.6 C 0 km/h
815 11-05-2010 19:03:02 11.3 C 8.16 g/m*3 11.3 C 0 km/h
816 11-05-2010 19:15:02 11.1 C 8.36 g/m*3 11.1 C 0 km/h
817 11-05-2010 19:27:02 10.9 C 8.36 g/m*3 10.9 C 0 km/h
818 11-05-2010 19:39:02 10.8 C 8.3 g/m*3 10.8 C 0 km/h
819 11-05-2010 19:51:01 10.6 C 8.39 g/m*3 10.6 C 0 km/h
820 11-05-2010 20:03:02 10.5 C 8.44 g/m*3 10.5 C 0 km/h
821 11-05-2010 20:15:02 10.2 C 8.37 g/m*3 10.2 C 0 km/h
822 11-05-2010 20:27:02 10.1 C 8.42 g/m*3 10.1 C 0 km/h
823 11-05-2010 20:39:02 10 C 8.46 g/m*3 10 C 0 km/h
824 11-05-2010 20:51:02 9.8 C 8.54 g/m*3 9.8 C 0 km/h
825 11-05-2010 21:03:01 9.8 C 8.54 g/m*3 9.8 C 0 km/h
Sensor: Nr:Datum:Temp:Abs-Feuchte:Windchill:Wind:
Aussen-T/F 826 11-05-2010 21:15:02 9.9 C 8.59 g/m*3 9.9 C 0 km/h
827 11-05-2010 21:27:03 10 C 8.64 g/m*3 10 C 0 km/h
828 11-05-2010 21:39:01 9.8 C 8.63 g/m*3 9.8 C 0 km/h
829 11-05-2010 21:51:02 9.8 C 8.63 g/m*3 9.8 C 0 km/h
830 11-05-2010 22:03:02 9.7 C 8.57 g/m*3 9.7 C 0 km/h
831 11-05-2010 22:15:01 9.6 C 8.52 g/m*3 9.6 C 0 km/h
832 11-05-2010 22:27:01 9.8 C 8.72 g/m*3 9.8 C 0 km/h
833 11-05-2010 22:40:03 9.6 C 8.61 g/m*3 9.6 C 0 km/h
834 11-05-2010 22:52:03 9.7 C 8.67 g/m*3 9.7 C 0 km/h
835 11-05-2010 23:04:03 9.8 C 8.72 g/m*3 9.8 C 0 km/h
836 11-05-2010 23:16:03 9.8 C 8.72 g/m*3 9.8 C 0 km/h
837 11-05-2010 23:28:03 9.8 C 8.72 g/m*3 9.8 C 0 km/h
838 11-05-2010 23:40:03 9.9 C 8.78 g/m*3 9.9 C 0 km/h
839 11-05-2010 23:52:03 9.7 C 8.67 g/m*3 9.7 C 0 km/h
840 12-05-2010 00:04:03 9.7 C 8.67 g/m*3 9.7 C 0 km/h
841 12-05-2010 00:16:03 9.6 C 8.61 g/m*3 9.6 C 0 km/h
842 12-05-2010 00:28:03 9.1 C 8.34 g/m*3 9.1 C 0 km/h
843 12-05-2010 00:40:03 9.1 C 8.34 g/m*3 9.1 C 0 km/h
844 12-05-2010 00:52:03 9.1 C 8.34 g/m*3 9.1 C 0 km/h
845 12-05-2010 01:04:03 9.1 C 8.34 g/m*3 9.1 C 0 km/h
846 12-05-2010 01:16:03 8.8 C 8.27 g/m*3 8.8 C 0 km/h
847 12-05-2010 01:28:04 8.5 C 8.03 g/m*3 8.5 C 0 km/h
848 12-05-2010 01:40:04 8.4 C 7.97 g/m*3 8.4 C 0 km/h
849 12-05-2010 01:52:04 7.8 C 7.75 g/m*3 7.8 C 0 km/h
850 12-05-2010 02:04:04 7.5 C 7.52 g/m*3 7.5 C 0 km/h
Sensor: Nr:Datum:Temp:Abs-Feuchte:Windchill:Wind:
Aussen-T/F 851 12-05-2010 02:16:04 7.8 C 7.75 g/m*3 7.8 C 0 km/h
852 12-05-2010 02:28:04 7.9 C 7.8 g/m*3 7.9 C 0 km/h
853 12-05-2010 02:40:04 7.9 C 7.8 g/m*3 7.9 C 0 km/h
854 12-05-2010 02:52:04 7.5 C 7.6 g/m*3 7.5 C 0 km/h
855 12-05-2010 03:04:04 7.3 C 7.43 g/m*3 7.3 C 0 km/h
856 12-05-2010 03:16:04 7.2 C 7.38 g/m*3 7.2 C 0 km/h
857 12-05-2010 03:28:04 7.1 C 7.33 g/m*3 7.1 C 0 km/h
858 12-05-2010 03:40:04 7 C 7.28 g/m*3 7 C 0 km/h
859 12-05-2010 03:52:04 7 C 7.21 g/m*3 7 C 0 km/h
860 12-05-2010 04:04:04 6.9 C 7.16 g/m*3 6.9 C 0 km/h
861 12-05-2010 04:16:04 6.9 C 7.08 g/m*3 6.9 C 0 km/h
862 12-05-2010 04:28:04 6.9 C 7.01 g/m*3 6.9 C 0 km/h
863 12-05-2010 04:40:04 6.9 C 6.93 g/m*3 6.9 C 0 km/h
864 12-05-2010 04:52:04 6.8 C 6.81 g/m*3 6.8 C 0 km/h
865 12-05-2010 05:04:04 6.8 C 6.73 g/m*3 6.8 C 0 km/h
866 12-05-2010 05:16:04 6.8 C 6.65 g/m*3 6.8 C 0 km/h
867 12-05-2010 05:28:04 6.8 C 6.65 g/m*3 6.8 C 0 km/h
868 12-05-2010 05:40:05 6.8 C 6.65 g/m*3 6.8 C 0 km/h
869 12-05-2010 05:52:05 6.8 C 6.65 g/m*3 6.8 C 0 km/h
870 12-05-2010 06:04:05 6.7 C 6.61 g/m*3 6.7 C 0 km/h
871 12-05-2010 06:16:05 6.8 C 6.58 g/m*3 6.8 C 0 km/h
872 12-05-2010 06:28:05 6.8 C 6.5 g/m*3 6.8 C 0 km/h
873 12-05-2010 06:40:05 6.8 C 6.58 g/m*3 6.8 C 0 km/h
874 12-05-2010 06:52:05 6.8 C 6.58 g/m*3 6.8 C 0 km/h
875 12-05-2010 07:04:03 6.9 C 6.54 g/m*3 6.9 C 0 km/h
Sensor: Nr:Datum:Temp:Abs-Feuchte:Windchill:Wind:
Aussen-T/F 876 12-05-2010 07:16:03 7 C 6.59 g/m*3 7 C 0 km/h
877 12-05-2010 07:28:03 7.1 C 6.71 g/m*3 7.1 C 0 km/h
878 12-05-2010 07:40:03 7.2 C 6.67 g/m*3 7.2 C 0 km/h
879 12-05-2010 07:52:02 7.2 C 6.59 g/m*3 7.2 C 0 km/h
880 12-05-2010 08:04:02 7.3 C 6.56 g/m*3 7.3 C 0 km/h
881 12-05-2010 08:16:02 7.6 C 6.69 g/m*3 7.6 C 0 km/h
882 12-05-2010 08:28:02 7.7 C 6.57 g/m*3 7.7 C 0 km/h
883 12-05-2010 08:40:02 7.8 C 6.45 g/m*3 7.8 C 0 km/h
884 12-05-2010 08:52:01 7.8 C 6.45 g/m*3 7.8 C 0 km/h
885 12-05-2010 09:04:02 8 C 6.37 g/m*3 8 C 0 km/h
886 12-05-2010 09:16:01 8.3 C 6.41 g/m*3 8.3 C 0 km/h
887 12-05-2010 09:28:01 8.4 C 6.19 g/m*3 8.4 C 0 km/h
888 12-05-2010 09:40:01 8.3 C 6.07 g/m*3 8.3 C 0 km/h
889 12-05-2010 09:52:01 8.4 C 6.11 g/m*3 8.4 C 0 km/h
890 12-05-2010 10:04:02 8.4 C 6.02 g/m*3 8.4 C 0 km/h
891 12-05-2010 10:16:01 8.6 C 6.1 g/m*3 8.6 C 0 km/h
892 12-05-2010 10:28:01 8.6 C 6.02 g/m*3 8.6 C 0 km/h
893 12-05-2010 10:40:01 8.7 C 5.97 g/m*3 8.7 C 0 km/h
894 12-05-2010 10:52:01 8.7 C 5.79 g/m*3 8.7 C 0 km/h
895 12-05-2010 11:04:01 8.7 C 5.79 g/m*3 8.7 C 0 km/h
896 12-05-2010 11:16:02 8.9 C 5.87 g/m*3 8.9 C 0 km/h
897 12-05-2010 11:28:02 8.9 C 5.61 g/m*3 8.9 C 0 km/h
898 12-05-2010 11:40:01 9.3 C 5.57 g/m*3 9.3 C 0 km/h
899 12-05-2010 11:52:01 10.1 C 5.67 g/m*3 10.1 C 0 km/h
900 12-05-2010 12:04:01 10 C 5.54 g/m*3 10 C 0 km/h
Sensor: Nr:Datum:Temp:Abs-Feuchte:Windchill:Wind:
Aussen-T/F 901 12-05-2010 12:16:02 9.7 C 5.35 g/m*3 9.7 C 0 km/h
902 12-05-2010 12:28:02 9.9 C 5.51 g/m*3 9.9 C 0 km/h
903 12-05-2010 12:40:01 10.5 C 5.33 g/m*3 10.5 C 0 km/h
904 12-05-2010 12:52:03 10.2 C 5.42 g/m*3 10.2 C 0 km/h
905 12-05-2010 13:04:02 10.5 C 5.43 g/m*3 10.5 C 0 km/h
906 12-05-2010 13:16:02 11.1 C 5.34 g/m*3 11.1 C 0 km/h
907 12-05-2010 13:28:02 10.7 C 5.3 g/m*3 10.7 C 0 km/h
908 12-05-2010 13:40:02 10.4 C 5.2 g/m*3 10.4 C 0 km/h
909 12-05-2010 13:52:02 10.7 C 5.21 g/m*3 10.7 C 0 km/h
910 12-05-2010 14:04:02 10.2 C 5.23 g/m*3 10.2 C 0 km/h
911 12-05-2010 14:16:02 10.2 C 5.23 g/m*3 10.2 C 0 km/h
912 12-05-2010 14:28:02 10.6 C 5.17 g/m*3 10.6 C 0 km/h
913 12-05-2010 14:40:01 10.9 C 5.17 g/m*3 10.9 C 0 km/h
914 12-05-2010 14:52:02 10.7 C 4.81 g/m*3 10.7 C 0 km/h
915 12-05-2010 15:04:01 11.1 C 5.14 g/m*3 11.1 C 0 km/h
916 12-05-2010 15:16:02 10.8 C 4.94 g/m*3 10.8 C 0 km/h
917 12-05-2010 15:28:02 10.8 C 4.84 g/m*3 10.8 C 0 km/h
918 12-05-2010 15:40:02 10.8 C 5.04 g/m*3 10.8 C 0 km/h
919 12-05-2010 15:52:02 10.7 C 5.11 g/m*3 10.7 C 0 km/h
920 12-05-2010 16:04:02 10.8 C 5.24 g/m*3 10.8 C 0 km/h
921 12-05-2010 16:16:02 10.9 C 5.17 g/m*3 10.9 C 0 km/h
922 12-05-2010 16:28:02 10.7 C 5.3 g/m*3 10.7 C 0 km/h
923 12-05-2010 16:40:02 10.3 C 5.17 g/m*3 10.3 C 0 km/h
924 12-05-2010 16:52:01 9.9 C 5.32 g/m*3 9.9 C 0 km/h
925 12-05-2010 17:04:02 9.6 C 5.22 g/m*3 9.6 C 0 km/h
Sensor: Nr:Datum:Temp:Abs-Feuchte:Windchill:Wind:
Aussen-T/F 926 12-05-2010 17:16:01 9.7 C 5.35 g/m*3 9.7 C 0 km/h
927 12-05-2010 17:28:01 9.9 C 5.32 g/m*3 9.9 C 0 km/h
928 12-05-2010 17:40:02 9.9 C 5.32 g/m*3 9.9 C 0 km/h
929 12-05-2010 17:52:02 9.6 C 5.22 g/m*3 9.6 C 0 km/h
930 12-05-2010 18:04:02 9.6 C 5.4 g/m*3 9.6 C 0 km/h
931 12-05-2010 18:16:01 9.3 C 5.39 g/m*3 9.3 C 0 km/h
932 12-05-2010 18:28:01 9.1 C 5.41 g/m*3 9.1 C 0 km/h
933 12-05-2010 18:40:02 9.1 C 5.5 g/m*3 9.1 C 0 km/h
934 12-05-2010 18:52:02 9 C 5.55 g/m*3 9 C 0 km/h
935 12-05-2010 19:04:02 9 C 5.64 g/m*3 9 C 0 km/h
936 12-05-2010 19:16:01 8.8 C 5.66 g/m*3 8.8 C 0 km/h
937 12-05-2010 19:28:01 9 C 5.73 g/m*3 9 C 0 km/h
938 12-05-2010 19:40:02 9 C 5.73 g/m*3 9 C 0 km/h
939 12-05-2010 19:52:02 8.7 C 5.71 g/m*3 8.7 C 0 km/h
940 12-05-2010 20:04:02 8.6 C 5.76 g/m*3 8.6 C 0 km/h
941 12-05-2010 20:16:02 8.6 C 5.84 g/m*3 8.6 C 0 km/h
942 12-05-2010 20:28:02 8.6 C 5.84 g/m*3 8.6 C 0 km/h
943 12-05-2010 20:40:02 8.5 C 5.81 g/m*3 8.5 C 0 km/h
944 12-05-2010 20:52:02 8.5 C 5.98 g/m*3 8.5 C 0 km/h
945 12-05-2010 21:04:02 8.5 C 5.89 g/m*3 8.5 C 0 km/h
946 12-05-2010 21:16:02 8.4 C 5.94 g/m*3 8.4 C 0 km/h
947 12-05-2010 21:28:02 8.5 C 6.06 g/m*3 8.5 C 0 km/h
948 12-05-2010 21:40:01 8.5 C 6.06 g/m*3 8.5 C 0 km/h
949 12-05-2010 21:52:02 8.3 C 6.07 g/m*3 8.3 C 0 km/h
950 12-05-2010 22:04:01 8 C 6.2 g/m*3 8 C 0 km/h
Sensor: Nr:Datum:Temp:Abs-Feuchte:Windchill:Wind:
Aussen-T/F 951 12-05-2010 22:17:03 8 C 6.37 g/m*3 8 C 0 km/h
952 12-05-2010 22:29:03 7.6 C 6.36 g/m*3 7.6 C 0 km/h
953 12-05-2010 22:41:03 7.5 C 6.48 g/m*3 7.5 C 0 km/h
954 12-05-2010 22:53:03 7.7 C 6.65 g/m*3 7.7 C 0 km/h
955 12-05-2010 23:05:03 7.8 C 6.69 g/m*3 7.8 C 0 km/h
956 12-05-2010 23:17:03 7.8 C 6.69 g/m*3 7.8 C 0 km/h
957 12-05-2010 23:29:03 7.8 C 6.69 g/m*3 7.8 C 0 km/h
958 12-05-2010 23:41:04 7.9 C 6.74 g/m*3 7.9 C 0 km/h
959 12-05-2010 23:53:04 7.7 C 6.57 g/m*3 7.7 C 0 km/h
960 13-05-2010 00:05:04 7.7 C 6.57 g/m*3 7.7 C 0 km/h
961 13-05-2010 00:17:04 7.6 C 6.53 g/m*3 7.6 C 0 km/h
962 13-05-2010 00:29:04 7.5 C 6.4 g/m*3 7.5 C 0 km/h
963 13-05-2010 00:41:04 7.6 C 6.44 g/m*3 7.6 C 0 km/h
964 13-05-2010 00:53:04 7.5 C 6.4 g/m*3 7.5 C 0 km/h
965 13-05-2010 01:05:04 7.4 C 6.36 g/m*3 7.4 C 0 km/h
966 13-05-2010 01:17:04 7.3 C 6.48 g/m*3 7.3 C 0 km/h
967 13-05-2010 01:29:04 7.3 C 6.48 g/m*3 7.3 C 0 km/h
968 13-05-2010 01:41:04 7.3 C 6.56 g/m*3 7.3 C 0 km/h
969 13-05-2010 01:53:04 7.4 C 6.68 g/m*3 7.4 C 0 km/h
970 13-05-2010 02:05:04 7.5 C 6.72 g/m*3 7.5 C 0 km/h
971 13-05-2010 02:17:04 7.4 C 6.6 g/m*3 7.4 C 0 km/h
972 13-05-2010 02:29:04 7.4 C 6.52 g/m*3 7.4 C 0 km/h
973 13-05-2010 02:41:04 7.4 C 6.52 g/m*3 7.4 C 0 km/h
974 13-05-2010 02:53:04 7.4 C 6.52 g/m*3 7.4 C 0 km/h
975 13-05-2010 03:05:04 7.4 C 6.52 g/m*3 7.4 C 0 km/h
Sensor: Nr:Datum:Temp:Abs-Feuchte:Windchill:Wind:
Aussen-T/F 976 13-05-2010 03:17:04 7.4 C 6.52 g/m*3 7.4 C 0 km/h
977 13-05-2010 03:29:04 7.3 C 6.48 g/m*3 7.3 C 0 km/h
978 13-05-2010 03:41:05 7.3 C 6.56 g/m*3 7.3 C 0 km/h
979 13-05-2010 03:53:05 7.1 C 6.47 g/m*3 7.1 C 0 km/h
980 13-05-2010 04:05:05 6.9 C 6.54 g/m*3 6.9 C 0 km/h
981 13-05-2010 04:17:05 7 C 6.51 g/m*3 7 C 0 km/h
982 13-05-2010 04:29:05 7.1 C 6.63 g/m*3 7.1 C 0 km/h
983 13-05-2010 04:41:05 7.1 C 6.63 g/m*3 7.1 C 0 km/h
984 13-05-2010 04:53:05 6.9 C 6.62 g/m*3 6.9 C 0 km/h
985 13-05-2010 05:05:05 6.9 C 6.7 g/m*3 6.9 C 0 km/h
986 13-05-2010 05:17:05 6.8 C 6.65 g/m*3 6.8 C 0 km/h
987 13-05-2010 05:29:05 6.8 C 6.65 g/m*3 6.8 C 0 km/h
988 13-05-2010 05:41:05 6.7 C 6.61 g/m*3 6.7 C 0 km/h
989 13-05-2010 05:53:05 6.6 C 6.64 g/m*3 6.6 C 0 km/h
990 13-05-2010 06:05:05 6.6 C 6.64 g/m*3 6.6 C 0 km/h
991 13-05-2010 06:17:05 6.7 C 6.69 g/m*3 6.7 C 0 km/h
992 13-05-2010 06:29:05 6.7 C 6.69 g/m*3 6.7 C 0 km/h
993 13-05-2010 06:41:05 6.6 C 6.64 g/m*3 6.6 C 0 km/h
994 13-05-2010 06:53:05 6.6 C 6.64 g/m*3 6.6 C 0 km/h
995 13-05-2010 07:05:05 6.7 C 6.76 g/m*3 6.7 C 0 km/h
996 13-05-2010 07:17:05 6.7 C 6.76 g/m*3 6.7 C 0 km/h
997 13-05-2010 07:29:05 6.9 C 6.77 g/m*3 6.9 C 0 km/h
998 13-05-2010 07:41:05 6.9 C 6.7 g/m*3 6.9 C 0 km/h
999 13-05-2010 07:53:01 6.8 C 6.5 g/m*3 6.8 C 0 km/h
1000 13-05-2010 08:05:01 6.8 C 6.42 g/m*3 6.8 C 0 km/h
Sensor: Nr:Datum:Temp:Abs-Feuchte:Windchill:Wind:
Aussen-T/F 1001 13-05-2010 08:17:02 6.8 C 6.35 g/m*3 6.8 C 0 km/h
1002 13-05-2010 08:29:02 6.9 C 6.31 g/m*3 6.9 C 0 km/h
1003 13-05-2010 08:41:01 7 C 6.12 g/m*3 7 C 0 km/h
1004 13-05-2010 08:53:02 7.2 C 6.12 g/m*3 7.2 C 0 km/h
1005 13-05-2010 09:05:01 7.5 C 6.24 g/m*3 7.5 C 0 km/h
1006 13-05-2010 09:17:01 7.8 C 6.2 g/m*3 7.8 C 0 km/h
1007 13-05-2010 09:29:01 7.9 C 6 g/m*3 7.9 C 0 km/h
1008 13-05-2010 09:41:01 8.2 C 5.86 g/m*3 8.2 C 0 km/h
1009 13-05-2010 09:53:02 8.3 C 5.65 g/m*3 8.3 C 0 km/h
1010 13-05-2010 10:05:01 8.9 C 5.69 g/m*3 8.9 C 0 km/h
1011 13-05-2010 10:17:02 9.1 C 5.41 g/m*3 9.1 C 0 km/h
1012 13-05-2010 10:29:02 9.7 C 5.62 g/m*3 9.7 C 0 km/h
1013 13-05-2010 10:41:02 9.7 C 5.16 g/m*3 9.7 C 0 km/h
1014 13-05-2010 10:53:01 9.9 C 5.23 g/m*3 9.9 C 0 km/h
1015 13-05-2010 11:05:02 10.2 C 5.23 g/m*3 10.2 C 0 km/h
1016 13-05-2010 11:17:01 10 C 4.98 g/m*3 10 C 0 km/h
1017 13-05-2010 11:29:01 10.1 C 4.92 g/m*3 10.1 C 0 km/h
1018 13-05-2010 11:41:02 9.5 C 5.01 g/m*3 9.5 C 0 km/h
1019 13-05-2010 11:53:02 9.7 C 5.16 g/m*3 9.7 C 0 km/h
1020 13-05-2010 12:05:02 9.7 C 4.89 g/m*3 9.7 C 0 km/h
1021 13-05-2010 12:17:01 9.5 C 4.92 g/m*3 9.5 C 0 km/h
1022 13-05-2010 12:29:01 10.2 C 4.95 g/m*3 10.2 C 0 km/h
1023 13-05-2010 12:41:02 10.1 C 4.63 g/m*3 10.1 C 0 km/h
1024 13-05-2010 12:53:02 10.8 C 4.84 g/m*3 10.8 C 0 km/h
1025 13-05-2010 13:05:02 11 C 4.8 g/m*3 11 C 0 km/h
Sensor: Nr:Datum:Temp:Abs-Feuchte:Windchill:Wind:
Aussen-T/F 1026 13-05-2010 13:17:01 10.1 C 4.92 g/m*3 10.1 C 0 km/h
1027 13-05-2010 13:29:01 9.3 C 4.94 g/m*3 9.3 C 0 km/h
1028 13-05-2010 13:41:02 8.9 C 5.08 g/m*3 8.9 C 0 km/h
1029 13-05-2010 13:53:02 9.4 C 5.16 g/m*3 9.4 C 0 km/h
1030 13-05-2010 14:05:02 10 C 5.17 g/m*3 10 C 0 km/h
1031 13-05-2010 14:17:02 10.5 C 5.14 g/m*3 10.5 C 0 km/h
1032 13-05-2010 14:29:02 10.9 C 5.07 g/m*3 10.9 C 0 km/h
1033 13-05-2010 14:41:02 10.6 C 4.78 g/m*3 10.6 C 0 km/h
1034 13-05-2010 14:53:01 11 C 4.9 g/m*3 11 C 0 km/h
1035 13-05-2010 15:05:02 11 C 4.8 g/m*3 11 C 0 km/h
1036 13-05-2010 15:17:02 10.5 C 4.85 g/m*3 10.5 C 0 km/h
1037 13-05-2010 15:29:02 10 C 4.79 g/m*3 10 C 0 km/h
1038 13-05-2010 15:41:02 9.8 C 5.1 g/m*3 9.8 C 0 km/h
1039 13-05-2010 15:53:02 9.2 C 5.36 g/m*3 9.2 C 0 km/h
1040 13-05-2010 16:05:01 8.7 C 5.53 g/m*3 8.7 C 0 km/h
1041 13-05-2010 16:17:02 8.5 C 5.81 g/m*3 8.5 C 0 km/h
1042 13-05-2010 16:29:02 8.6 C 6.02 g/m*3 8.6 C 0 km/h
1043 13-05-2010 16:41:01 8.6 C 6.19 g/m*3 8.6 C 0 km/h
1044 13-05-2010 16:53:02 8.9 C 6.57 g/m*3 8.9 C 0 km/h
1045 13-05-2010 17:05:01 8.4 C 6.19 g/m*3 8.4 C 0 km/h
1046 13-05-2010 17:17:02 8.2 C 6.28 g/m*3 8.2 C 0 km/h
1047 13-05-2010 17:29:03 8.2 C 6.36 g/m*3 8.2 C 0 km/h
1048 13-05-2010 17:41:01 8.2 C 6.53 g/m*3 8.2 C 0 km/h
1049 13-05-2010 17:53:02 8.1 C 6.49 g/m*3 8.1 C 0 km/h
1050 13-05-2010 18:05:02 8.3 C 6.66 g/m*3 8.3 C 0 km/h
Sensor: Nr:Datum:Temp:Abs-Feuchte:Windchill:Wind:
Aussen-T/F 1051 13-05-2010 18:17:02 9 C 7.05 g/m*3 9 C 0 km/h
1052 13-05-2010 18:29:02 8.9 C 7.1 g/m*3 8.9 C 0 km/h
1053 13-05-2010 18:41:02 8.7 C 7.01 g/m*3 8.7 C 0 km/h
1054 13-05-2010 18:53:02 7.9 C 6.74 g/m*3 7.9 C 0 km/h
1055 13-05-2010 19:05:02 7.7 C 6.81 g/m*3 7.7 C 0 km/h
1056 13-05-2010 19:17:01 7.5 C 6.8 g/m*3 7.5 C 0 km/h
1057 13-05-2010 19:29:01 7.3 C 6.72 g/m*3 7.3 C 0 km/h
1058 13-05-2010 19:41:02 7.3 C 6.79 g/m*3 7.3 C 0 km/h
1059 13-05-2010 19:53:02 7.2 C 6.75 g/m*3 7.2 C 0 km/h
1060 13-05-2010 20:05:02 7.3 C 6.87 g/m*3 7.3 C 0 km/h
1061 13-05-2010 20:17:02 7.4 C 6.92 g/m*3 7.4 C 0 km/h
1062 13-05-2010 20:29:02 7.4 C 7 g/m*3 7.4 C 0 km/h
1063 13-05-2010 20:41:02 7.5 C 7.04 g/m*3 7.5 C 0 km/h
1064 13-05-2010 20:53:01 7.6 C 7.09 g/m*3 7.6 C 0 km/h
1065 13-05-2010 21:05:02 7.5 C 7.12 g/m*3 7.5 C 0 km/h
1066 13-05-2010 21:17:01 7.5 C 7.12 g/m*3 7.5 C 0 km/h
1067 13-05-2010 21:29:01 7.4 C 7.08 g/m*3 7.4 C 0 km/h
1068 13-05-2010 21:41:01 7.4 C 7.08 g/m*3 7.4 C 0 km/h
1069 13-05-2010 21:53:01 7.4 C 7.16 g/m*3 7.4 C 0 km/h
1070 13-05-2010 22:05:02 7.4 C 7.16 g/m*3 7.4 C 0 km/h
1071 13-05-2010 22:17:01 7.4 C 7.16 g/m*3 7.4 C 0 km/h
1072 13-05-2010 22:29:01 7.3 C 7.11 g/m*3 7.3 C 0 km/h
1073 13-05-2010 22:41:02 7.2 C 7.06 g/m*3 7.2 C 0 km/h
1074 13-05-2010 22:54:02 7.2 C 7.06 g/m*3 7.2 C 0 km/h
1075 13-05-2010 23:06:02 7.2 C 7.06 g/m*3 7.2 C 0 km/h
Sensor: Nr:Datum:Temp:Abs-Feuchte:Windchill:Wind:
Aussen-T/F 1076 13-05-2010 23:18:03 7.3 C 7.11 g/m*3 7.3 C 0 km/h
1077 13-05-2010 23:30:03 7.3 C 7.19 g/m*3 7.3 C 0 km/h
1078 13-05-2010 23:42:03 7.2 C 7.14 g/m*3 7.2 C 0 km/h
1079 13-05-2010 23:54:03 7.2 C 7.14 g/m*3 7.2 C 0 km/h
1080 14-05-2010 00:06:03 7 C 7.05 g/m*3 7 C 0 km/h
1081 14-05-2010 00:18:03 6.9 C 7.16 g/m*3 6.9 C 0 km/h
1082 14-05-2010 00:30:03 6.9 C 7.16 g/m*3 6.9 C 0 km/h
1083 14-05-2010 00:42:03 7 C 7.21 g/m*3 7 C 0 km/h
1084 14-05-2010 00:54:03 7 C 7.21 g/m*3 7 C 0 km/h
1085 14-05-2010 01:06:03 6.9 C 7.24 g/m*3 6.9 C 0 km/h
1086 14-05-2010 01:18:03 7 C 7.21 g/m*3 7 C 0 km/h
1087 14-05-2010 01:30:03 7.1 C 7.25 g/m*3 7.1 C 0 km/h
1088 14-05-2010 01:42:03 7.1 C 7.25 g/m*3 7.1 C 0 km/h
1089 14-05-2010 01:54:03 7.1 C 7.25 g/m*3 7.1 C 0 km/h
1090 14-05-2010 02:06:03 7.1 C 7.25 g/m*3 7.1 C 0 km/h
1091 14-05-2010 02:18:03 7 C 7.21 g/m*3 7 C 0 km/h
1092 14-05-2010 02:30:03 6.9 C 7.24 g/m*3 6.9 C 0 km/h
1093 14-05-2010 02:42:03 7 C 7.21 g/m*3 7 C 0 km/h
1094 14-05-2010 02:54:03 7 C 7.28 g/m*3 7 C 0 km/h
1095 14-05-2010 03:06:03 7 C 7.28 g/m*3 7 C 0 km/h
1096 14-05-2010 03:18:03 6.9 C 7.24 g/m*3 6.9 C 0 km/h
1097 14-05-2010 03:30:04 7 C 7.28 g/m*3 7 C 0 km/h
1098 14-05-2010 03:42:04 7 C 7.28 g/m*3 7 C 0 km/h
1099 14-05-2010 03:54:04 7 C 7.28 g/m*3 7 C 0 km/h
1100 14-05-2010 04:06:04 7 C 7.28 g/m*3 7 C 0 km/h
Sensor: Nr:Datum:Temp:Abs-Feuchte:Windchill:Wind:
Aussen-T/F 1101 14-05-2010 04:18:04 7 C 7.28 g/m*3 7 C 0 km/h
1102 14-05-2010 04:30:04 6.9 C 7.24 g/m*3 6.9 C 0 km/h
1103 14-05-2010 04:42:04 6.9 C 7.24 g/m*3 6.9 C 0 km/h
1104 14-05-2010 04:54:04 6.9 C 7.24 g/m*3 6.9 C 0 km/h
1105 14-05-2010 05:06:04 6.8 C 7.19 g/m*3 6.8 C 0 km/h
1106 14-05-2010 05:18:04 6.9 C 7.24 g/m*3 6.9 C 0 km/h
1107 14-05-2010 05:30:04 6.8 C 7.27 g/m*3 6.8 C 0 km/h
1108 14-05-2010 05:42:04 6.9 C 7.31 g/m*3 6.9 C 0 km/h
1109 14-05-2010 05:54:04 7 C 7.28 g/m*3 7 C 0 km/h
1110 14-05-2010 06:06:04 7.1 C 7.33 g/m*3 7.1 C 0 km/h
1111 14-05-2010 06:18:04 7.1 C 7.33 g/m*3 7.1 C 0 km/h
1112 14-05-2010 06:30:04 7 C 7.28 g/m*3 7 C 0 km/h
1113 14-05-2010 06:42:04 7.1 C 7.33 g/m*3 7.1 C 0 km/h
1114 14-05-2010 06:54:04 7.2 C 7.38 g/m*3 7.2 C 0 km/h
1115 14-05-2010 07:06:02 7.2 C 7.3 g/m*3 7.2 C 0 km/h
1116 14-05-2010 07:18:02 7.3 C 7.35 g/m*3 7.3 C 0 km/h
1117 14-05-2010 07:30:02 7.5 C 7.44 g/m*3 7.5 C 0 km/h
1118 14-05-2010 07:42:02 7.5 C 7.44 g/m*3 7.5 C 0 km/h
1119 14-05-2010 07:54:01 7.5 C 7.36 g/m*3 7.5 C 0 km/h
1120 14-05-2010 08:06:02 7.7 C 7.38 g/m*3 7.7 C 0 km/h
1121 14-05-2010 08:18:01 7.9 C 7.47 g/m*3 7.9 C 0 km/h
1122 14-05-2010 08:30:01 8.1 C 7.41 g/m*3 8.1 C 0 km/h
1123 14-05-2010 08:42:02 7.9 C 7.31 g/m*3 7.9 C 0 km/h
1124 14-05-2010 08:54:02 8 C 7.19 g/m*3 8 C 0 km/h
1125 14-05-2010 09:06:02 8 C 7.19 g/m*3 8 C 0 km/h
Sensor: Nr:Datum:Temp:Abs-Feuchte:Windchill:Wind:
Aussen-T/F 1126 14-05-2010 09:18:01 7.9 C 7.15 g/m*3 7.9 C 0 km/h
1127 14-05-2010 09:30:01 8 C 7.03 g/m*3 8 C 0 km/h
1128 14-05-2010 09:42:02 8.6 C 7.39 g/m*3 8.6 C 0 km/h
1129 14-05-2010 09:54:02 8.4 C 7.13 g/m*3 8.4 C 0 km/h
1130 14-05-2010 10:06:02 8.7 C 7.18 g/m*3 8.7 C 0 km/h
1131 14-05-2010 10:18:02 9.4 C 7.33 g/m*3 9.4 C 0 km/h
1132 14-05-2010 10:30:02 9.5 C 7.01 g/m*3 9.5 C 0 km/h
1133 14-05-2010 10:42:02 10 C 7.24 g/m*3 10 C 0 km/h
1134 14-05-2010 10:54:01 10.3 C 7.18 g/m*3 10.3 C 0 km/h
1135 14-05-2010 11:06:02 11 C 7.31 g/m*3 11 C 0 km/h
1136 14-05-2010 11:18:02 10.5 C 6.6 g/m*3 10.5 C 0 km/h
1137 14-05-2010 11:30:02 10.1 C 6.34 g/m*3 10.1 C 0 km/h
1138 14-05-2010 11:42:02 10.4 C 6.75 g/m*3 10.4 C 0 km/h
1139 14-05-2010 11:54:02 9.9 C 6.82 g/m*3 9.9 C 0 km/h
1140 14-05-2010 12:06:01 9.1 C 6.39 g/m*3 9.1 C 0 km/h
1141 14-05-2010 12:18:02 9 C 6.44 g/m*3 9 C 0 km/h
1142 14-05-2010 12:30:02 9.3 C 7.1 g/m*3 9.3 C 0 km/h
1143 14-05-2010 12:42:01 9.3 C 7.28 g/m*3 9.3 C 0 km/h
1144 14-05-2010 12:54:02 9.1 C 7.28 g/m*3 9.1 C 0 km/h
1145 14-05-2010 13:06:01 9.3 C 7.46 g/m*3 9.3 C 0 km/h
1146 14-05-2010 13:18:01 9.5 C 7.65 g/m*3 9.5 C 0 km/h
1147 14-05-2010 13:30:01 9.6 C 7.69 g/m*3 9.6 C 0 km/h
1148 14-05-2010 13:42:02 9.7 C 7.74 g/m*3 9.7 C 0 km/h
1149 14-05-2010 13:54:02 9.2 C 7.41 g/m*3 9.2 C 0 km/h
1150 14-05-2010 14:06:01 9 C 7.41 g/m*3 9 C 0 km/h
Sensor: Nr:Datum:Temp:Abs-Feuchte:Windchill:Wind:
Aussen-T/F 1151 14-05-2010 14:18:02 9.2 C 7.59 g/m*3 9.2 C 0 km/h
1152 14-05-2010 14:30:02 9.5 C 7.74 g/m*3 9.5 C 0 km/h
1153 14-05-2010 14:42:02 9.7 C 7.84 g/m*3 9.7 C 0 km/h
1154 14-05-2010 14:54:02 10.5 C 8.15 g/m*3 10.5 C 0 km/h
1155 14-05-2010 15:06:02 11.2 C 8.21 g/m*3 11.2 C 0 km/h
1156 14-05-2010 15:18:01 11.7 C 7.95 g/m*3 11.7 C 0 km/h
1157 14-05-2010 15:30:01 12 C 7.67 g/m*3 12 C 0 km/h
1158 14-05-2010 15:42:02 12.2 C 7.23 g/m*3 12.2 C 0 km/h
1159 14-05-2010 15:54:02 12.2 C 6.91 g/m*3 12.2 C 0 km/h
1160 14-05-2010 16:06:02 12.6 C 6.97 g/m*3 12.6 C 0 km/h
1161 14-05-2010 16:18:01 12.8 C 7.06 g/m*3 12.8 C 0 km/h
1162 14-05-2010 16:30:01 13.3 C 6.93 g/m*3 13.3 C 0 km/h
1163 14-05-2010 16:42:02 13.4 C 6.63 g/m*3 13.4 C 0 km/h
1164 14-05-2010 16:54:02 12.8 C 6.27 g/m*3 12.8 C 0 km/h
1165 14-05-2010 17:06:02 12.2 C 6.37 g/m*3 12.2 C 0 km/h
1166 14-05-2010 17:18:02 11.9 C 6.25 g/m*3 11.9 C 0 km/h
1167 14-05-2010 17:30:02 11.4 C 6.77 g/m*3 11.4 C 0 km/h
1168 14-05-2010 17:42:02 11 C 6.81 g/m*3 11 C 0 km/h
1169 14-05-2010 17:54:02 11.2 C 6.79 g/m*3 11.2 C 0 km/h
1170 14-05-2010 18:06:02 11.5 C 6.71 g/m*3 11.5 C 0 km/h
1171 14-05-2010 18:18:03 11.8 C 6.74 g/m*3 11.8 C 0 km/h
1172 14-05-2010 18:30:03 12 C 6.82 g/m*3 12 C 0 km/h
1173 14-05-2010 18:42:02 11.5 C 6.71 g/m*3 11.5 C 0 km/h
1174 14-05-2010 18:54:02 11 C 6.81 g/m*3 11 C 0 km/h
1175 14-05-2010 19:06:02 10.5 C 6.89 g/m*3 10.5 C 0 km/h
Sensor: Nr:Datum:Temp:Abs-Feuchte:Windchill:Wind:
Aussen-T/F 1176 14-05-2010 19:18:03 10.3 C 6.99 g/m*3 10.3 C 0 km/h
1177 14-05-2010 19:30:03 10.4 C 7.13 g/m*3 10.4 C 0 km/h
1178 14-05-2010 19:42:02 10.5 C 6.98 g/m*3 10.5 C 0 km/h
1179 14-05-2010 19:54:02 10.6 C 7.03 g/m*3 10.6 C 0 km/h
1180 14-05-2010 20:06:02 10.5 C 7.08 g/m*3 10.5 C 0 km/h
1181 14-05-2010 20:18:02 10.2 C 6.95 g/m*3 10.2 C 0 km/h
1182 14-05-2010 20:30:02 9.9 C 6.91 g/m*3 9.9 C 0 km/h
1183 14-05-2010 20:42:02 9.6 C 6.78 g/m*3 9.6 C 0 km/h
1184 14-05-2010 20:54:02 9.5 C 6.92 g/m*3 9.5 C 0 km/h
1185 14-05-2010 21:06:02 9.3 C 6.83 g/m*3 9.3 C 0 km/h
1186 14-05-2010 21:18:02 9.2 C 6.88 g/m*3 9.2 C 0 km/h
1187 14-05-2010 21:30:02 9.1 C 6.83 g/m*3 9.1 C 0 km/h
1188 14-05-2010 21:42:02 9.1 C 6.92 g/m*3 9.1 C 0 km/h
1189 14-05-2010 21:54:02 9 C 6.88 g/m*3 9 C 0 km/h
1190 14-05-2010 22:06:02 9.1 C 7.01 g/m*3 9.1 C 0 km/h
1191 14-05-2010 22:18:02 9.1 C 7.01 g/m*3 9.1 C 0 km/h
1192 14-05-2010 22:30:02 9.1 C 7.1 g/m*3 9.1 C 0 km/h
1193 14-05-2010 22:42:02 9.1 C 7.1 g/m*3 9.1 C 0 km/h
1194 14-05-2010 22:55:03 9 C 7.14 g/m*3 9 C 0 km/h
1195 14-05-2010 23:07:03 8.6 C 7.13 g/m*3 8.6 C 0 km/h
1196 14-05-2010 23:19:03 8.2 C 7.12 g/m*3 8.2 C 0 km/h
1197 14-05-2010 23:31:03 8.2 C 7.2 g/m*3 8.2 C 0 km/h
1198 14-05-2010 23:43:03 8.1 C 7.16 g/m*3 8.1 C 0 km/h
1199 14-05-2010 23:55:03 8.1 C 7.24 g/m*3 8.1 C 0 km/h
1200 15-05-2010 00:07:03 8 C 7.19 g/m*3 8 C 0 km/h
Sensor: Nr:Datum:Temp:Abs-Feuchte:Windchill:Wind:
Aussen-T/F 1201 15-05-2010 00:19:03 8 C 7.19 g/m*3 8 C 0 km/h
1202 15-05-2010 00:31:04 7.9 C 7.23 g/m*3 7.9 C 0 km/h
1203 15-05-2010 00:43:04 7.8 C 7.18 g/m*3 7.8 C 0 km/h
1204 15-05-2010 00:55:04 7.8 C 7.18 g/m*3 7.8 C 0 km/h
1205 15-05-2010 01:07:04 7.9 C 7.23 g/m*3 7.9 C 0 km/h
1206 15-05-2010 01:19:04 7.8 C 7.18 g/m*3 7.8 C 0 km/h
1207 15-05-2010 01:31:04 7.6 C 7.09 g/m*3 7.6 C 0 km/h
1208 15-05-2010 01:43:04 7.6 C 7.09 g/m*3 7.6 C 0 km/h
1209 15-05-2010 01:55:04 7.6 C 7.09 g/m*3 7.6 C 0 km/h
1210 15-05-2010 02:07:04 7.5 C 7.04 g/m*3 7.5 C 0 km/h
1211 15-05-2010 02:19:04 7.5 C 7.12 g/m*3 7.5 C 0 km/h
1212 15-05-2010 02:31:04 7.6 C 7.17 g/m*3 7.6 C 0 km/h
1213 15-05-2010 02:43:04 7.8 C 7.26 g/m*3 7.8 C 0 km/h
1214 15-05-2010 02:55:04 7.8 C 7.26 g/m*3 7.8 C 0 km/h
1215 15-05-2010 03:07:04 7.6 C 7.17 g/m*3 7.6 C 0 km/h
1216 15-05-2010 03:19:04 7.6 C 7.17 g/m*3 7.6 C 0 km/h
1217 15-05-2010 03:31:04 7.6 C 7.25 g/m*3 7.6 C 0 km/h
1218 15-05-2010 03:43:04 7.6 C 7.25 g/m*3 7.6 C 0 km/h
1219 15-05-2010 03:55:04 7.6 C 7.25 g/m*3 7.6 C 0 km/h
1220 15-05-2010 04:07:04 7.6 C 7.25 g/m*3 7.6 C 0 km/h
1221 15-05-2010 04:19:04 7.7 C 7.3 g/m*3 7.7 C 0 km/h
1222 15-05-2010 04:31:04 7.6 C 7.25 g/m*3 7.6 C 0 km/h
1223 15-05-2010 04:43:05 7.6 C 7.25 g/m*3 7.6 C 0 km/h
1224 15-05-2010 04:55:05 7.5 C 7.2 g/m*3 7.5 C 0 km/h
1225 15-05-2010 05:07:05 7.4 C 7.24 g/m*3 7.4 C 0 km/h
Sensor: Nr:Datum:Temp:Abs-Feuchte:Windchill:Wind:
Aussen-T/F 1226 15-05-2010 05:19:05 7.3 C 7.19 g/m*3 7.3 C 0 km/h
1227 15-05-2010 05:31:05 7.3 C 7.19 g/m*3 7.3 C 0 km/h
1228 15-05-2010 05:43:05 7.2 C 7.14 g/m*3 7.2 C 0 km/h
1229 15-05-2010 05:55:05 7.1 C 7.1 g/m*3 7.1 C 0 km/h
1230 15-05-2010 06:07:05 7.1 C 7.1 g/m*3 7.1 C 0 km/h
1231 15-05-2010 06:19:05 7.1 C 7.1 g/m*3 7.1 C 0 km/h
1232 15-05-2010 06:31:05 7.1 C 7.18 g/m*3 7.1 C 0 km/h
1233 15-05-2010 06:43:05 7.1 C 7.18 g/m*3 7.1 C 0 km/h
1234 15-05-2010 06:55:05 7.1 C 7.18 g/m*3 7.1 C 0 km/h
1235 15-05-2010 07:07:05 7.1 C 7.18 g/m*3 7.1 C 0 km/h
1236 15-05-2010 07:19:05 7.4 C 7.32 g/m*3 7.4 C 0 km/h
1237 15-05-2010 07:31:05 7.5 C 7.36 g/m*3 7.5 C 0 km/h
1238 15-05-2010 07:43:05 7.8 C 7.51 g/m*3 7.8 C 0 km/h
1239 15-05-2010 07:55:02 8.2 C 7.62 g/m*3 8.2 C 0 km/h
1240 15-05-2010 08:07:02 8.3 C 7.59 g/m*3 8.3 C 0 km/h
1241 15-05-2010 08:19:02 8.2 C 7.29 g/m*3 8.2 C 0 km/h
1242 15-05-2010 08:31:03 8.6 C 7.39 g/m*3 8.6 C 0 km/h
1243 15-05-2010 08:43:03 8.5 C 7 g/m*3 8.5 C 0 km/h
1244 15-05-2010 08:55:02 8.8 C 7.05 g/m*3 8.8 C 0 km/h
1245 15-05-2010 09:07:02 9 C 6.88 g/m*3 9 C 0 km/h
1246 15-05-2010 09:19:02 9.3 C 6.92 g/m*3 9.3 C 0 km/h
1247 15-05-2010 09:31:02 9.5 C 6.83 g/m*3 9.5 C 0 km/h
1248 15-05-2010 09:43:02 9.6 C 6.78 g/m*3 9.6 C 0 km/h
1249 15-05-2010 09:55:01 10 C 6.67 g/m*3 10 C 0 km/h
1250 15-05-2010 10:07:02 10.5 C 6.6 g/m*3 10.5 C 0 km/h
Sensor: Nr:Datum:Temp:Abs-Feuchte:Windchill:Wind:
Aussen-T/F 1251 15-05-2010 10:19:01 10.7 C 6.48 g/m*3 10.7 C 0 km/h
1252 15-05-2010 10:31:02 10.6 C 6.34 g/m*3 10.6 C 0 km/h
1253 15-05-2010 10:43:02 11.1 C 6.35 g/m*3 11.1 C 0 km/h
1254 15-05-2010 10:55:02 11.1 C 6.35 g/m*3 11.1 C 0 km/h
1255 15-05-2010 11:07:02 10.9 C 6.27 g/m*3 10.9 C 0 km/h
1256 15-05-2010 11:19:01 10.8 C 6.23 g/m*3 10.8 C 0 km/h
1257 15-05-2010 11:31:02 10.9 C 6.17 g/m*3 10.9 C 0 km/h
1258 15-05-2010 11:43:02 11.5 C 5.89 g/m*3 11.5 C 0 km/h
1259 15-05-2010 11:55:02 11.9 C 6.04 g/m*3 11.9 C 0 km/h
1260 15-05-2010 12:07:02 11.2 C 5.68 g/m*3 11.2 C 0 km/h
1261 15-05-2010 12:19:02 11.1 C 5.64 g/m*3 11.1 C 0 km/h
1262 15-05-2010 12:31:02 11.2 C 5.57 g/m*3 11.2 C 0 km/h
1263 15-05-2010 12:43:02 12.4 C 5.46 g/m*3 12.4 C 0 km/h
1264 15-05-2010 12:55:02 12.3 C 4.78 g/m*3 12.3 C 0 km/h
1265 15-05-2010 13:07:02 13.9 C 5.04 g/m*3 13.9 C 0 km/h
1266 15-05-2010 13:19:03 12 C 4.58 g/m*3 12 C 0 km/h
1267 15-05-2010 13:31:02 11.1 C 5.14 g/m*3 11.1 C 0 km/h
1268 15-05-2010 13:43:02 11.2 C 4.87 g/m*3 11.2 C 0 km/h
1269 15-05-2010 13:55:02 12.1 C 4.5 g/m*3 12.1 C 0 km/h
1270 15-05-2010 14:07:02 13.7 C 4.5 g/m*3 13.7 C 0 km/h
1271 15-05-2010 14:19:02 15 C 4.62 g/m*3 15 C 0 km/h
1272 15-05-2010 14:31:02 14.7 C 4.15 g/m*3 14.7 C 0 km/h
1273 15-05-2010 14:43:02 14 C 3.98 g/m*3 14 C 0 km/h
1274 15-05-2010 14:55:01 13.9 C 3.72 g/m*3 13.9 C 0 km/h
1275 15-05-2010 15:07:01 14.3 C 3.56 g/m*3 14.3 C 0 km/h
Sensor: Nr:Datum:Temp:Abs-Feuchte:Windchill:Wind:
Aussen-T/F 1276 15-05-2010 15:19:01 15.2 C 3.24 g/m*3 15.2 C 0 km/h
1277 15-05-2010 15:31:01 15.8 C 2.69 g/m*3 15.8 C 0 km/h
1278 15-05-2010 15:43:01 16 C 2.72 g/m*3 16 C 0 km/h
1279 15-05-2010 15:55:01 16.2 C 2.76 g/m*3 16.2 C 0 km/h
1280 15-05-2010 16:07:02 16.2 C 2.76 g/m*3 16.2 C 0 km/h
1281 15-05-2010 16:19:01 15.1 C 2.58 g/m*3 15.1 C 0 km/h
1282 15-05-2010 16:31:01 14.4 C 2.47 g/m*3 14.4 C 0 km/h
1283 15-05-2010 16:43:01 14.4 C 2.97 g/m*3 14.4 C 0 km/h
1284 15-05-2010 16:55:01 13.8 C 2.98 g/m*3 13.8 C 0 km/h
1285 15-05-2010 17:07:02 13.9 C 3.12 g/m*3 13.9 C 0 km/h
1286 15-05-2010 17:19:01 14 C 3.02 g/m*3 14 C 0 km/h
1287 15-05-2010 17:31:02 14.1 C 3.16 g/m*3 14.1 C 0 km/h
1288 15-05-2010 17:43:02 14 C 3.26 g/m*3 14 C 0 km/h
1289 15-05-2010 17:55:02 14 C 3.26 g/m*3 14 C 0 km/h
1290 15-05-2010 18:07:02 13.7 C 3.43 g/m*3 13.7 C 0 km/h
1291 15-05-2010 18:19:01 14 C 3.62 g/m*3 14 C 0 km/h
1292 15-05-2010 18:31:02 13.8 C 3.46 g/m*3 13.8 C 0 km/h
1293 15-05-2010 18:43:02 13.7 C 3.43 g/m*3 13.7 C 0 km/h
1294 15-05-2010 18:55:02 13.9 C 3.36 g/m*3 13.9 C 0 km/h
1295 15-05-2010 19:07:02 13.9 C 3.24 g/m*3 13.9 C 0 km/h
1296 15-05-2010 19:19:02 14.6 C 3.5 g/m*3 14.6 C 0 km/h
1297 15-05-2010 19:31:02 15.1 C 3.23 g/m*3 15.1 C 0 km/h
1298 15-05-2010 19:43:02 14.9 C 3.44 g/m*3 14.9 C 0 km/h
1299 15-05-2010 19:55:02 14.4 C 3.58 g/m*3 14.4 C 0 km/h
1300 15-05-2010 20:07:02 13.9 C 4.2 g/m*3 13.9 C 0 km/h
Sensor: Nr:Datum:Temp:Abs-Feuchte:Windchill:Wind:
Aussen-T/F 1301 15-05-2010 20:19:02 13.3 C 4.62 g/m*3 13.3 C 0 km/h
1302 15-05-2010 20:31:02 12.4 C 4.48 g/m*3 12.4 C 0 km/h
1303 15-05-2010 20:43:02 11.6 C 4.47 g/m*3 11.6 C 0 km/h
1304 15-05-2010 20:55:02 11.3 C 4.59 g/m*3 11.3 C 0 km/h
1305 15-05-2010 21:07:02 11.4 C 4.62 g/m*3 11.4 C 0 km/h
1306 15-05-2010 21:19:02 11.1 C 4.53 g/m*3 11.1 C 0 km/h
1307 15-05-2010 21:31:02 10.8 C 4.55 g/m*3 10.8 C 0 km/h
1308 15-05-2010 21:43:02 10.8 C 4.84 g/m*3 10.8 C 0 km/h
1309 15-05-2010 21:55:01 10.8 C 4.84 g/m*3 10.8 C 0 km/h
1310 15-05-2010 22:07:02 10.8 C 4.94 g/m*3 10.8 C 0 km/h
1311 15-05-2010 22:19:02 11 C 5 g/m*3 11 C 0 km/h
1312 15-05-2010 22:32:02 11.1 C 4.83 g/m*3 11.1 C 0 km/h
1313 15-05-2010 22:44:03 11.2 C 4.66 g/m*3 11.2 C 0 km/h
1314 15-05-2010 22:56:03 11.2 C 4.66 g/m*3 11.2 C 0 km/h
1315 15-05-2010 23:08:03 11.1 C 4.73 g/m*3 11.1 C 0 km/h
1316 15-05-2010 23:20:03 10.9 C 4.97 g/m*3 10.9 C 0 km/h
1317 15-05-2010 23:32:03 10.9 C 5.07 g/m*3 10.9 C 0 km/h
1318 15-05-2010 23:44:03 10.8 C 5.04 g/m*3 10.8 C 0 km/h
1319 15-05-2010 23:56:03 10.5 C 5.04 g/m*3 10.5 C 0 km/h
1320 16-05-2010 00:08:03 10.2 C 5.04 g/m*3 10.2 C 0 km/h
1321 16-05-2010 00:20:03 10.1 C 5.3 g/m*3 10.1 C 0 km/h
1322 16-05-2010 00:32:03 10.1 C 5.39 g/m*3 10.1 C 0 km/h
1323 16-05-2010 00:44:03 10 C 5.45 g/m*3 10 C 0 km/h
1324 16-05-2010 00:56:03 10.1 C 5.48 g/m*3 10.1 C 0 km/h
1325 16-05-2010 01:08:03 10 C 5.54 g/m*3 10 C 0 km/h
Sensor: Nr:Datum:Temp:Abs-Feuchte:Windchill:Wind:
Aussen-T/F 1326 16-05-2010 01:20:03 9.7 C 5.62 g/m*3 9.7 C 0 km/h
1327 16-05-2010 01:32:03 9.3 C 5.66 g/m*3 9.3 C 0 km/h
1328 16-05-2010 01:44:03 9 C 5.64 g/m*3 9 C 0 km/h
1329 16-05-2010 01:56:03 8.7 C 5.88 g/m*3 8.7 C 0 km/h
1330 16-05-2010 02:08:03 8.4 C 5.85 g/m*3 8.4 C 0 km/h
1331 16-05-2010 02:20:03 8.2 C 5.86 g/m*3 8.2 C 0 km/h
1332 16-05-2010 02:32:03 8 C 5.87 g/m*3 8 C 0 km/h
1333 16-05-2010 02:44:04 7.8 C 5.96 g/m*3 7.8 C 0 km/h
1334 16-05-2010 02:56:04 7.8 C 5.88 g/m*3 7.8 C 0 km/h
1335 16-05-2010 03:08:04 7.6 C 5.88 g/m*3 7.6 C 0 km/h
1336 16-05-2010 03:20:04 7.4 C 5.88 g/m*3 7.4 C 0 km/h
1337 16-05-2010 03:32:04 7.4 C 5.88 g/m*3 7.4 C 0 km/h
1338 16-05-2010 03:44:04 7.5 C 5.92 g/m*3 7.5 C 0 km/h
1339 16-05-2010 03:56:04 7.5 C 5.92 g/m*3 7.5 C 0 km/h
1340 16-05-2010 04:08:04 7.6 C 5.96 g/m*3 7.6 C 0 km/h
1341 16-05-2010 04:20:04 7.6 C 5.88 g/m*3 7.6 C 0 km/h
1342 16-05-2010 04:32:04 7.6 C 5.96 g/m*3 7.6 C 0 km/h
1343 16-05-2010 04:44:04 7.6 C 5.96 g/m*3 7.6 C 0 km/h
1344 16-05-2010 04:56:04 7.6 C 5.96 g/m*3 7.6 C 0 km/h
1345 16-05-2010 05:08:04 7.6 C 5.96 g/m*3 7.6 C 0 km/h
1346 16-05-2010 05:20:04 7.5 C 5.92 g/m*3 7.5 C 0 km/h
1347 16-05-2010 05:32:04 7.2 C 5.89 g/m*3 7.2 C 0 km/h
1348 16-05-2010 05:44:04 7 C 5.89 g/m*3 7 C 0 km/h
1349 16-05-2010 05:56:04 7.2 C 5.97 g/m*3 7.2 C 0 km/h
1350 16-05-2010 06:08:04 7.4 C 6.04 g/m*3 7.4 C 0 km/h
Sensor: Nr:Datum:Temp:Abs-Feuchte:Windchill:Wind:
Aussen-T/F 1351 16-05-2010 06:20:04 7.4 C 5.96 g/m*3 7.4 C 0 km/h
1352 16-05-2010 06:32:04 7.4 C 5.96 g/m*3 7.4 C 0 km/h
1353 16-05-2010 06:44:04 7.4 C 5.96 g/m*3 7.4 C 0 km/h
1354 16-05-2010 06:56:05 7.5 C 6 g/m*3 7.5 C 0 km/h
1355 16-05-2010 07:08:05 7.7 C 6.08 g/m*3 7.7 C 0 km/h
1356 16-05-2010 07:20:05 7.8 C 6.04 g/m*3 7.8 C 0 km/h
1357 16-05-2010 07:32:05 7.9 C 6.08 g/m*3 7.9 C 0 km/h
1358 16-05-2010 07:44:05 7.9 C 6.08 g/m*3 7.9 C 0 km/h
1359 16-05-2010 07:56:05 7.9 C 6.08 g/m*3 7.9 C 0 km/h
1360 16-05-2010 08:08:05 8 C 6.04 g/m*3 8 C 0 km/h
1361 16-05-2010 08:20:05 8.2 C 6.2 g/m*3 8.2 C 0 km/h
1362 16-05-2010 08:32:05 8.7 C 6.14 g/m*3 8.7 C 0 km/h
1363 16-05-2010 08:44:05 9.1 C 6.03 g/m*3 9.1 C 0 km/h
1364 16-05-2010 08:56:05 9.6 C 6.05 g/m*3 9.6 C 0 km/h
1365 16-05-2010 09:08:02 10.2 C 5.8 g/m*3 10.2 C 0 km/h
1366 16-05-2010 09:20:01 10.6 C 4.98 g/m*3 10.6 C 0 km/h
1367 16-05-2010 09:32:02 11 C 4.7 g/m*3 11 C 0 km/h
1368 16-05-2010 09:44:02 11.3 C 4.39 g/m*3 11.3 C 0 km/h
1369 16-05-2010 09:56:02 11.7 C 4.39 g/m*3 11.7 C 0 km/h
1370 16-05-2010 10:08:02 11.9 C 4.24 g/m*3 11.9 C 0 km/h
1371 16-05-2010 10:20:01 12.2 C 4.1 g/m*3 12.2 C 0 km/h
1372 16-05-2010 10:32:02 12.4 C 4.15 g/m*3 12.4 C 0 km/h
1373 16-05-2010 10:44:02 13 C 4.31 g/m*3 13 C 0 km/h
1374 16-05-2010 10:56:01 13.3 C 4.16 g/m*3 13.3 C 0 km/h
1375 16-05-2010 11:08:02 13.7 C 4.03 g/m*3 13.7 C 0 km/h
Sensor: Nr:Datum:Temp:Abs-Feuchte:Windchill:Wind:
Aussen-T/F 1376 16-05-2010 11:20:02 14.3 C 4.05 g/m*3 14.3 C 0 km/h
1377 16-05-2010 11:32:02 15.4 C 4.07 g/m*3 15.4 C 0 km/h
1378 16-05-2010 11:44:02 15.4 C 3.94 g/m*3 15.4 C 0 km/h
1379 16-05-2010 11:56:01 15.4 C 3.81 g/m*3 15.4 C 0 km/h
1380 16-05-2010 12:08:02 15.9 C 3.52 g/m*3 15.9 C 0 km/h
1381 16-05-2010 12:20:02 16.1 C 3.84 g/m*3 16.1 C 0 km/h
1382 16-05-2010 12:32:02 17.9 C 3.82 g/m*3 17.9 C 0 km/h
1383 16-05-2010 12:44:02 17.2 C 3.37 g/m*3 17.2 C 0 km/h
1384 16-05-2010 12:56:01 16.1 C 3.43 g/m*3 16.1 C 0 km/h
1385 16-05-2010 13:08:02 18.3 C 3.6 g/m*3 18.3 C 0 km/h
1386 16-05-2010 13:20:02 17.3 C 3.39 g/m*3 17.3 C 0 km/h
1387 16-05-2010 13:32:01 17.4 C 3.41 g/m*3 17.4 C 0 km/h
1388 16-05-2010 13:44:01 18 C 3.69 g/m*3 18 C 0 km/h
1389 16-05-2010 13:56:02 17.3 C 3.54 g/m*3 17.3 C 0 km/h
1390 16-05-2010 14:08:01 16.7 C 3.55 g/m*3 16.7 C 0 km/h
1391 16-05-2010 14:20:02 18.4 C 3.93 g/m*3 18.4 C 0 km/h
1392 16-05-2010 14:32:02 18.4 C 3.3 g/m*3 18.4 C 0 km/h
1393 16-05-2010 14:44:02 17.9 C 3.51 g/m*3 17.9 C 0 km/h
1394 16-05-2010 14:56:02 18.2 C 3.42 g/m*3 18.2 C 0 km/h
1395 16-05-2010 15:08:02 19 C 3.26 g/m*3 19 C 0 km/h
1396 16-05-2010 15:20:02 19.3 C 3.32 g/m*3 19.3 C 0 km/h
1397 16-05-2010 15:32:02 19.8 C 3.42 g/m*3 19.8 C 0 km/h
1398 16-05-2010 15:44:02 19.1 C 3.28 g/m*3 19.1 C 0 km/h
1399 16-05-2010 15:56:02 20.3 C 3.52 g/m*3 20.3 C 0 km/h
1400 16-05-2010 16:08:02 21 C 3.66 g/m*3 21 C 0 km/h
Sensor: Nr:Datum:Temp:Abs-Feuchte:Windchill:Wind:
Aussen-T/F 1401 16-05-2010 16:20:01 20.1 C 3.48 g/m*3 20.1 C 0 km/h
1402 16-05-2010 16:32:02 20.4 C 3.54 g/m*3 20.4 C 0 km/h
1403 16-05-2010 16:44:02 20 C 3.46 g/m*3 20 C 0 km/h
1404 16-05-2010 16:56:02 21.2 C 3.71 g/m*3 21.2 C 0 km/h
1405 16-05-2010 17:08:02 21.7 C 3.82 g/m*3 21.7 C 0 km/h
1406 16-05-2010 17:20:02 21.1 C 3.69 g/m*3 21.1 C 0 km/h
1407 16-05-2010 17:32:02 21.5 C 3.77 g/m*3 21.5 C 0 km/h
1408 16-05-2010 17:44:02 21.4 C 3.75 g/m*3 21.4 C 0 km/h
1409 16-05-2010 17:56:02 20.8 C 3.62 g/m*3 20.8 C 0 km/h
1410 16-05-2010 18:08:02 20.8 C 3.62 g/m*3 20.8 C 0 km/h
1411 16-05-2010 18:20:02 20 C 3.46 g/m*3 20 C 0 km/h
1412 16-05-2010 18:32:02 19.5 C 3.52 g/m*3 19.5 C 0 km/h
1413 16-05-2010 18:44:02 18.9 C 3.56 g/m*3 18.9 C 0 km/h
1414 16-05-2010 18:56:02 19.9 C 3.44 g/m*3 19.9 C 0 km/h
1415 16-05-2010 19:08:02 19.7 C 3.57 g/m*3 19.7 C 0 km/h
1416 16-05-2010 19:20:03 19.5 C 3.52 g/m*3 19.5 C 0 km/h
1417 16-05-2010 19:32:02 18.6 C 3.5 g/m*3 18.6 C 0 km/h
1418 16-05-2010 19:44:02 18.2 C 3.89 g/m*3 18.2 C 0 km/h
1419 16-05-2010 19:56:02 18.3 C 3.91 g/m*3 18.3 C 0 km/h
1420 16-05-2010 20:08:02 19.3 C 4.15 g/m*3 19.3 C 0 km/h
1421 16-05-2010 20:20:02 19.3 C 4.48 g/m*3 19.3 C 0 km/h
1422 16-05-2010 20:32:02 18.2 C 4.51 g/m*3 18.2 C 0 km/h
1423 16-05-2010 20:44:02 17 C 4.63 g/m*3 17 C 0 km/h
1424 16-05-2010 20:56:02 16 C 4.5 g/m*3 16 C 0 km/h
1425 16-05-2010 21:08:02 15.1 C 4.52 g/m*3 15.1 C 0 km/h
Sensor: Nr:Datum:Temp:Abs-Feuchte:Windchill:Wind:
Aussen-T/F 1426 16-05-2010 21:20:02 14.6 C 4.63 g/m*3 14.6 C 0 km/h
1427 16-05-2010 21:32:02 14.2 C 4.76 g/m*3 14.2 C 0 km/h
1428 16-05-2010 21:44:02 13.9 C 4.92 g/m*3 13.9 C 0 km/h
1429 16-05-2010 21:56:02 13.6 C 5.18 g/m*3 13.6 C 0 km/h
1430 16-05-2010 22:08:02 13.2 C 5.05 g/m*3 13.2 C 0 km/h
1431 16-05-2010 22:20:03 12.6 C 5.31 g/m*3 12.6 C 0 km/h
1432 16-05-2010 22:33:03 12.3 C 5.32 g/m*3 12.3 C 0 km/h
1433 16-05-2010 22:45:03 11.9 C 5.4 g/m*3 11.9 C 0 km/h
1434 16-05-2010 22:57:03 11.8 C 5.58 g/m*3 11.8 C 0 km/h
1435 16-05-2010 23:09:03 11.4 C 5.65 g/m*3 11.4 C 0 km/h
1436 16-05-2010 23:21:03 11 C 5.71 g/m*3 11 C 0 km/h
1437 16-05-2010 23:33:03 10.7 C 5.8 g/m*3 10.7 C 0 km/h
1438 16-05-2010 23:45:03 10.7 C 5.89 g/m*3 10.7 C 0 km/h
1439 16-05-2010 23:57:03 10.5 C 6.01 g/m*3 10.5 C 0 km/h
1440 17-05-2010 00:09:03 10.3 C 6.03 g/m*3 10.3 C 0 km/h
1441 17-05-2010 00:21:03 10.4 C 5.98 g/m*3 10.4 C 0 km/h
1442 17-05-2010 00:33:03 10 C 5.92 g/m*3 10 C 0 km/h
1443 17-05-2010 00:45:03 10 C 5.92 g/m*3 10 C 0 km/h
1444 17-05-2010 00:57:03 9.9 C 5.98 g/m*3 9.9 C 0 km/h
1445 17-05-2010 01:09:03 9.8 C 5.85 g/m*3 9.8 C 0 km/h
1446 17-05-2010 01:21:04 9.7 C 5.99 g/m*3 9.7 C 0 km/h
1447 17-05-2010 01:33:04 9.3 C 6.02 g/m*3 9.3 C 0 km/h
1448 17-05-2010 01:45:04 9 C 5.99 g/m*3 9 C 0 km/h
1449 17-05-2010 01:57:04 9 C 6.08 g/m*3 9 C 0 km/h
1450 17-05-2010 02:09:04 8.7 C 6.14 g/m*3 8.7 C 0 km/h
Sensor: Nr:Datum:Temp:Abs-Feuchte:Windchill:Wind:
Aussen-T/F 1451 17-05-2010 02:21:04 8.6 C 6.1 g/m*3 8.6 C 0 km/h
1452 17-05-2010 02:33:04 8.6 C 6.19 g/m*3 8.6 C 0 km/h
1453 17-05-2010 02:45:04 8.5 C 6.15 g/m*3 8.5 C 0 km/h
1454 17-05-2010 02:57:04 8.4 C 6.11 g/m*3 8.4 C 0 km/h
1455 17-05-2010 03:09:04 8.1 C 6.07 g/m*3 8.1 C 0 km/h
1456 17-05-2010 03:21:04 7.8 C 6.12 g/m*3 7.8 C 0 km/h
1457 17-05-2010 03:33:04 7.6 C 6.12 g/m*3 7.6 C 0 km/h
1458 17-05-2010 03:45:04 7.4 C 6.12 g/m*3 7.4 C 0 km/h
1459 17-05-2010 03:57:04 7.3 C 6.16 g/m*3 7.3 C 0 km/h
1460 17-05-2010 04:09:04 7.2 C 6.12 g/m*3 7.2 C 0 km/h
1461 17-05-2010 04:21:04 7.1 C 6.08 g/m*3 7.1 C 0 km/h
1462 17-05-2010 04:33:04 7 C 6.04 g/m*3 7 C 0 km/h
1463 17-05-2010 04:45:04 6.8 C 6.12 g/m*3 6.8 C 0 km/h
1464 17-05-2010 04:57:04 6.7 C 6.15 g/m*3 6.7 C 0 km/h
1465 17-05-2010 05:09:04 6.5 C 6.15 g/m*3 6.5 C 0 km/h
1466 17-05-2010 05:21:04 6.3 C 6.07 g/m*3 6.3 C 0 km/h
1467 17-05-2010 05:33:04 6.2 C 6.1 g/m*3 6.2 C 0 km/h
1468 17-05-2010 05:45:05 6.1 C 6.06 g/m*3 6.1 C 0 km/h
1469 17-05-2010 05:57:05 6 C 6.02 g/m*3 6 C 0 km/h
1470 17-05-2010 06:09:05 6 C 6.1 g/m*3 6 C 0 km/h
1471 17-05-2010 06:21:05 6 C 6.02 g/m*3 6 C 0 km/h
1472 17-05-2010 06:33:03 6 C 6.02 g/m*3 6 C 0 km/h
1473 17-05-2010 06:45:02 5.9 C 6.06 g/m*3 5.9 C 0 km/h
1474 17-05-2010 06:57:02 6.1 C 6.06 g/m*3 6.1 C 0 km/h
1475 17-05-2010 07:09:01 6.3 C 6.14 g/m*3 6.3 C 0 km/h
Sensor: Nr:Datum:Temp:Abs-Feuchte:Windchill:Wind:
Aussen-T/F 1476 17-05-2010 07:21:02 6.5 C 6.15 g/m*3 6.5 C 0 km/h
1477 17-05-2010 07:33:01 7.2 C 6.2 g/m*3 7.2 C 0 km/h
1478 17-05-2010 07:45:02 7.4 C 6.2 g/m*3 7.4 C 0 km/h
1479 17-05-2010 07:57:02 8 C 6.2 g/m*3 8 C 0 km/h
1480 17-05-2010 08:09:01 8.3 C 6.24 g/m*3 8.3 C 0 km/h
1481 17-05-2010 08:21:02 8.8 C 6.35 g/m*3 8.8 C 0 km/h
1482 17-05-2010 08:33:02 9.2 C 6.25 g/m*3 9.2 C 0 km/h
1483 17-05-2010 08:45:02 10.1 C 6.24 g/m*3 10.1 C 0 km/h
1484 17-05-2010 08:57:02 10.7 C 6.29 g/m*3 10.7 C 0 km/h
1485 17-05-2010 09:09:02 11.2 C 6.28 g/m*3 11.2 C 0 km/h
1486 17-05-2010 09:21:02 11.6 C 6.44 g/m*3 11.6 C 0 km/h
1487 17-05-2010 09:33:02 12.2 C 6.47 g/m*3 12.2 C 0 km/h
1488 17-05-2010 09:45:02 12.2 C 6.47 g/m*3 12.2 C 0 km/h
1489 17-05-2010 09:57:02 12.2 C 6.47 g/m*3 12.2 C 0 km/h
1490 17-05-2010 10:09:02 13 C 6.35 g/m*3 13 C 0 km/h
1491 17-05-2010 10:21:02 13.2 C 6.2 g/m*3 13.2 C 0 km/h
1492 17-05-2010 10:33:03 13.7 C 6.39 g/m*3 13.7 C 0 km/h
1493 17-05-2010 10:45:02 14.1 C 6.55 g/m*3 14.1 C 0 km/h
1494 17-05-2010 10:57:03 14.5 C 6.47 g/m*3 14.5 C 0 km/h
1495 17-05-2010 11:09:01 14.1 C 6.55 g/m*3 14.1 C 0 km/h
1496 17-05-2010 11:21:02 13.9 C 6.83 g/m*3 13.9 C 0 km/h
1497 17-05-2010 11:33:02 13.5 C 6.67 g/m*3 13.5 C 0 km/h
1498 17-05-2010 11:45:02 13.5 C 7.13 g/m*3 13.5 C 0 km/h
1499 17-05-2010 11:57:02 13 C 7.14 g/m*3 13 C 0 km/h
1500 17-05-2010 12:09:02 13.2 C 7.23 g/m*3 13.2 C 0 km/h
Sensor: Nr:Datum:Temp:Abs-Feuchte:Windchill:Wind:
Aussen-T/F 1501 17-05-2010 12:21:02 13 C 7.48 g/m*3 13 C 0 km/h
1502 17-05-2010 12:33:02 13.2 C 7.69 g/m*3 13.2 C 0 km/h
1503 17-05-2010 12:45:01 14.2 C 7.45 g/m*3 14.2 C 0 km/h
1504 17-05-2010 12:57:01 15.8 C 7.27 g/m*3 15.8 C 0 km/h
1505 17-05-2010 13:09:02 15.4 C 6.7 g/m*3 15.4 C 0 km/h
1506 17-05-2010 13:21:01 16.9 C 6.9 g/m*3 16.9 C 0 km/h
1507 17-05-2010 13:33:01 18.1 C 6.49 g/m*3 18.1 C 0 km/h
1508 17-05-2010 13:45:01 17.7 C 6.04 g/m*3 17.7 C 0 km/h
1509 17-05-2010 13:57:01 15 C 7.05 g/m*3 15 C 0 km/h
1510 17-05-2010 14:09:02 15.6 C 7.05 g/m*3 15.6 C 0 km/h
1511 17-05-2010 14:21:01 15.5 C 7.4 g/m*3 15.5 C 0 km/h
1512 17-05-2010 14:33:01 17.1 C 6.7 g/m*3 17.1 C 0 km/h
1513 17-05-2010 14:45:01 16.5 C 6.46 g/m*3 16.5 C 0 km/h
1514 17-05-2010 14:57:01 14.7 C 7.18 g/m*3 14.7 C 0 km/h
1515 17-05-2010 15:09:02 12.6 C 8.3 g/m*3 12.6 C 0 km/h
1516 17-05-2010 15:21:02 12.6 C 9.07 g/m*3 12.6 C 0 km/h
1517 17-05-2010 15:33:01 12.9 C 9.58 g/m*3 12.9 C 0 km/h
1518 17-05-2010 15:45:02 12.7 C 9.57 g/m*3 12.7 C 0 km/h
1519 17-05-2010 15:57:02 12.5 C 9.57 g/m*3 12.5 C 0 km/h
1520 17-05-2010 16:09:01 13.3 C 10.05 g/m*3 13.3 C 0 km/h
1521 17-05-2010 16:21:02 13.8 C 9.89 g/m*3 13.8 C 0 km/h
1522 17-05-2010 16:33:01 13.7 C 9.24 g/m*3 13.7 C 0 km/h
1523 17-05-2010 16:45:02 13.1 C 8.9 g/m*3 13.1 C 0 km/h
1524 17-05-2010 16:57:02 13.3 C 9.24 g/m*3 13.3 C 0 km/h
1525 17-05-2010 17:09:01 13.8 C 9.29 g/m*3 13.8 C 0 km/h
Sensor: Nr:Datum:Temp:Abs-Feuchte:Windchill:Wind:
Aussen-T/F 1526 17-05-2010 17:21:01 14.1 C 8.98 g/m*3 14.1 C 0 km/h
1527 17-05-2010 17:33:01 13.9 C 8.99 g/m*3 13.9 C 0 km/h
1528 17-05-2010 17:45:02 13.7 C 8.64 g/m*3 13.7 C 0 km/h
1529 17-05-2010 17:57:02 13.8 C 8.7 g/m*3 13.8 C 0 km/h
1530 17-05-2010 18:09:02 13.6 C 8.47 g/m*3 13.6 C 0 km/h
1531 17-05-2010 18:21:02 14.4 C 8.9 g/m*3 14.4 C 0 km/h
1532 17-05-2010 18:33:02 11.8 C 6.63 g/m*3 11.8 C 0 km/h
1533 17-05-2010 18:45:01 10.7 C 6.88 g/m*3 10.7 C 0 km/h
1534 17-05-2010 18:57:01 10 C 7.24 g/m*3 10 C 0 km/h
1535 17-05-2010 19:09:02 9.8 C 7.7 g/m*3 9.8 C 0 km/h
1536 17-05-2010 19:21:01 10.3 C 7.85 g/m*3 10.3 C 0 km/h
1537 17-05-2010 19:33:02 10.3 C 7.95 g/m*3 10.3 C 0 km/h
1538 17-05-2010 19:45:02 9.8 C 7.7 g/m*3 9.8 C 0 km/h
1539 17-05-2010 19:57:02 10 C 7.8 g/m*3 10 C 0 km/h
1540 17-05-2010 20:09:02 9.8 C 7.89 g/m*3 9.8 C 0 km/h
1541 17-05-2010 20:21:01 9.5 C 7.83 g/m*3 9.5 C 0 km/h
1542 17-05-2010 20:33:02 9.5 C 7.92 g/m*3 9.5 C 0 km/h
1543 17-05-2010 20:45:02 9.4 C 7.87 g/m*3 9.4 C 0 km/h
1544 17-05-2010 20:57:02 9.1 C 7.81 g/m*3 9.1 C 0 km/h
1545 17-05-2010 21:09:02 9 C 7.76 g/m*3 9 C 0 km/h
1546 17-05-2010 21:21:02 9 C 7.85 g/m*3 9 C 0 km/h
1547 17-05-2010 21:33:02 9 C 7.85 g/m*3 9 C 0 km/h
1548 17-05-2010 21:45:02 8.7 C 7.78 g/m*3 8.7 C 0 km/h
1549 17-05-2010 21:57:02 8.7 C 7.87 g/m*3 8.7 C 0 km/h
1550 17-05-2010 22:09:02 8.3 C 7.67 g/m*3 8.3 C 0 km/h
Sensor: Nr:Datum:Temp:Abs-Feuchte:Windchill:Wind:
Aussen-T/F 1551 17-05-2010 22:21:02 8.6 C 7.82 g/m*3 8.6 C 0 km/h
1552 17-05-2010 22:34:03 8.7 C 7.96 g/m*3 8.7 C 0 km/h
1553 17-05-2010 22:46:03 8.5 C 7.85 g/m*3 8.5 C 0 km/h
1554 17-05-2010 22:58:03 8.4 C 7.8 g/m*3 8.4 C 0 km/h
1555 17-05-2010 23:10:04 8.1 C 7.57 g/m*3 8.1 C 0 km/h
1556 17-05-2010 23:22:04 7.8 C 7.51 g/m*3 7.8 C 0 km/h
1557 17-05-2010 23:34:04 7.8 C 7.51 g/m*3 7.8 C 0 km/h
1558 17-05-2010 23:46:04 7.7 C 7.54 g/m*3 7.7 C 0 km/h
1559 17-05-2010 23:58:04 7.6 C 7.49 g/m*3 7.6 C 0 km/h
1560 18-05-2010 00:10:04 7.4 C 7.32 g/m*3 7.4 C 0 km/h
1561 18-05-2010 00:22:04 7.1 C 7.18 g/m*3 7.1 C 0 km/h
1562 18-05-2010 00:34:04 7 C 7.13 g/m*3 7 C 0 km/h
1563 18-05-2010 00:46:04 7 C 7.13 g/m*3 7 C 0 km/h
1564 18-05-2010 00:58:04 6.9 C 7.16 g/m*3 6.9 C 0 km/h
1565 18-05-2010 01:10:04 6.8 C 7.11 g/m*3 6.8 C 0 km/h
1566 18-05-2010 01:22:04 6.6 C 7.02 g/m*3 6.6 C 0 km/h
1567 18-05-2010 01:34:04 6.4 C 6.85 g/m*3 6.4 C 0 km/h
1568 18-05-2010 01:46:04 6.3 C 6.88 g/m*3 6.3 C 0 km/h
1569 18-05-2010 01:58:04 6.2 C 6.84 g/m*3 6.2 C 0 km/h
1570 18-05-2010 02:10:04 6.3 C 6.88 g/m*3 6.3 C 0 km/h
1571 18-05-2010 02:22:04 6.2 C 6.84 g/m*3 6.2 C 0 km/h
1572 18-05-2010 02:34:04 6.1 C 6.79 g/m*3 6.1 C 0 km/h
1573 18-05-2010 02:46:04 6 C 6.75 g/m*3 6 C 0 km/h
1574 18-05-2010 02:58:04 5.9 C 6.71 g/m*3 5.9 C 0 km/h
1575 18-05-2010 03:10:04 5.8 C 6.66 g/m*3 5.8 C 0 km/h
Sensor: Nr:Datum:Temp:Abs-Feuchte:Windchill:Wind:
Aussen-T/F 1576 18-05-2010 03:22:04 5.7 C 6.62 g/m*3 5.7 C 0 km/h
1577 18-05-2010 03:34:05 5.7 C 6.69 g/m*3 5.7 C 0 km/h
1578 18-05-2010 03:46:05 5.8 C 6.73 g/m*3 5.8 C 0 km/h
1579 18-05-2010 03:58:05 6 C 6.75 g/m*3 6 C 0 km/h
1580 18-05-2010 04:10:05 6.3 C 6.96 g/m*3 6.3 C 0 km/h
1581 18-05-2010 04:22:05 6.3 C 6.96 g/m*3 6.3 C 0 km/h
1582 18-05-2010 04:34:05 6.3 C 6.96 g/m*3 6.3 C 0 km/h
1583 18-05-2010 04:46:05 6.2 C 6.91 g/m*3 6.2 C 0 km/h
1584 18-05-2010 04:58:05 6.3 C 6.88 g/m*3 6.3 C 0 km/h
1585 18-05-2010 05:10:05 6.4 C 7 g/m*3 6.4 C 0 km/h
1586 18-05-2010 05:22:05 6.5 C 7.05 g/m*3 6.5 C 0 km/h
1587 18-05-2010 05:34:05 6.4 C 6.93 g/m*3 6.4 C 0 km/h
1588 18-05-2010 05:46:05 6.5 C 6.97 g/m*3 6.5 C 0 km/h
1589 18-05-2010 05:58:05 6.7 C 7.07 g/m*3 6.7 C 0 km/h
1590 18-05-2010 06:10:05 6.9 C 7.16 g/m*3 6.9 C 0 km/h
1591 18-05-2010 06:22:05 6.9 C 7.16 g/m*3 6.9 C 0 km/h
1592 18-05-2010 06:34:05 7.1 C 7.18 g/m*3 7.1 C 0 km/h
1593 18-05-2010 06:46:05 7.3 C 7.27 g/m*3 7.3 C 0 km/h
1594 18-05-2010 06:58:05 7.5 C 7.28 g/m*3 7.5 C 0 km/h
1595 18-05-2010 07:10:04 7.9 C 7.47 g/m*3 7.9 C 0 km/h
1596 18-05-2010 07:22:03 7.9 C 7.39 g/m*3 7.9 C 0 km/h
1597 18-05-2010 07:34:03 8 C 7.36 g/m*3 8 C 0 km/h
1598 18-05-2010 07:46:01 8.5 C 7.6 g/m*3 8.5 C 0 km/h
1599 18-05-2010 07:58:01 8.7 C 7.52 g/m*3 8.7 C 0 km/h
1600 18-05-2010 08:10:02 9 C 7.23 g/m*3 9 C 0 km/h
Sensor: Nr:Datum:Temp:Abs-Feuchte:Windchill:Wind:
Aussen-T/F 1601 18-05-2010 08:22:01 8.7 C 6.66 g/m*3 8.7 C 0 km/h
1602 18-05-2010 08:34:02 9 C 6.44 g/m*3 9 C 0 km/h
1603 18-05-2010 08:46:02 9.3 C 6.56 g/m*3 9.3 C 0 km/h
1604 18-05-2010 08:58:02 9.2 C 6.52 g/m*3 9.2 C 0 km/h
1605 18-05-2010 09:10:01 9.3 C 6.47 g/m*3 9.3 C 0 km/h
1606 18-05-2010 09:22:02 9.6 C 6.41 g/m*3 9.6 C 0 km/h
1607 18-05-2010 09:34:01 9.9 C 6.35 g/m*3 9.9 C 0 km/h
1608 18-05-2010 09:46:02 9.7 C 6.08 g/m*3 9.7 C 0 km/h
1609 18-05-2010 09:58:02 10 C 6.01 g/m*3 10 C 0 km/h
1610 18-05-2010 10:10:01 10.5 C 6.01 g/m*3 10.5 C 0 km/h
1611 18-05-2010 10:22:01 10.5 C 6.01 g/m*3 10.5 C 0 km/h
1612 18-05-2010 10:34:02 10.6 C 5.66 g/m*3 10.6 C 0 km/h
1613 18-05-2010 10:46:02 11.2 C 5.57 g/m*3 11.2 C 0 km/h
1614 18-05-2010 10:58:02 11.4 C 5.65 g/m*3 11.4 C 0 km/h
1615 18-05-2010 11:10:02 12.5 C 5.61 g/m*3 12.5 C 0 km/h
1616 18-05-2010 11:22:02 12.4 C 5.24 g/m*3 12.4 C 0 km/h
1617 18-05-2010 11:34:02 12.1 C 5.25 g/m*3 12.1 C 0 km/h
1618 18-05-2010 11:46:02 13 C 5.22 g/m*3 13 C 0 km/h
1619 18-05-2010 11:58:02 13.7 C 5.21 g/m*3 13.7 C 0 km/h
1620 18-05-2010 12:10:03 13.7 C 4.86 g/m*3 13.7 C 0 km/h
1621 18-05-2010 12:22:02 12.7 C 5.12 g/m*3 12.7 C 0 km/h
1622 18-05-2010 12:34:02 14.2 C 5.13 g/m*3 14.2 C 0 km/h
1623 18-05-2010 12:46:01 14.4 C 4.82 g/m*3 14.4 C 0 km/h
1624 18-05-2010 12:58:01 15.2 C 4.67 g/m*3 15.2 C 0 km/h
1625 18-05-2010 13:10:02 16.8 C 5 g/m*3 16.8 C 0 km/h
Sensor: Nr:Datum:Temp:Abs-Feuchte:Windchill:Wind:
Aussen-T/F 1626 18-05-2010 13:22:01 16.9 C 4.46 g/m*3 16.9 C 0 km/h
1627 18-05-2010 13:34:01 16.5 C 4.49 g/m*3 16.5 C 0 km/h
1628 18-05-2010 13:46:01 17.8 C 4.4 g/m*3 17.8 C 0 km/h
1629 18-05-2010 13:58:01 15.8 C 4.04 g/m*3 15.8 C 0 km/h
1630 18-05-2010 14:10:02 15.1 C 4.13 g/m*3 15.1 C 0 km/h
1631 18-05-2010 14:22:01 15.8 C 4.17 g/m*3 15.8 C 0 km/h
1632 18-05-2010 14:34:01 15 C 4.23 g/m*3 15 C 0 km/h
1633 18-05-2010 14:46:01 15.8 C 4.31 g/m*3 15.8 C 0 km/h
1634 18-05-2010 14:58:01 16.3 C 4.16 g/m*3 16.3 C 0 km/h
1635 18-05-2010 15:10:02 16.4 C 4.47 g/m*3 16.4 C 0 km/h
1636 18-05-2010 15:22:02 16.5 C 4.21 g/m*3 16.5 C 0 km/h
1637 18-05-2010 15:34:01 16.6 C 3.96 g/m*3 16.6 C 0 km/h
1638 18-05-2010 15:46:02 16 C 3.95 g/m*3 16 C 0 km/h
1639 18-05-2010 15:58:02 16.9 C 4.17 g/m*3 16.9 C 0 km/h
1640 18-05-2010 16:10:01 18.2 C 4.04 g/m*3 18.2 C 0 km/h
1641 18-05-2010 16:22:02 18.2 C 3.89 g/m*3 18.2 C 0 km/h
1642 18-05-2010 16:34:01 17.9 C 3.05 g/m*3 17.9 C 0 km/h
1643 18-05-2010 16:46:02 17.6 C 3.3 g/m*3 17.6 C 0 km/h
1644 18-05-2010 16:58:02 16.8 C 3.29 g/m*3 16.8 C 0 km/h
1645 18-05-2010 17:10:02 16.6 C 3.53 g/m*3 16.6 C 0 km/h
1646 18-05-2010 17:22:02 17.7 C 3.77 g/m*3 17.7 C 0 km/h
1647 18-05-2010 17:34:02 17.5 C 4.03 g/m*3 17.5 C 0 km/h
1648 18-05-2010 17:46:02 16.8 C 3.86 g/m*3 16.8 C 0 km/h
1649 18-05-2010 17:58:02 17.2 C 3.66 g/m*3 17.2 C 0 km/h
1650 18-05-2010 18:10:01 18.2 C 3.57 g/m*3 18.2 C 0 km/h
Sensor: Nr:Datum:Temp:Abs-Feuchte:Windchill:Wind:
Aussen-T/F 1651 18-05-2010 18:22:02 18.2 C 3.73 g/m*3 18.2 C 0 km/h
1652 18-05-2010 18:34:02 16.9 C 3.88 g/m*3 16.9 C 0 km/h
1653 18-05-2010 18:46:02 16.2 C 4.14 g/m*3 16.2 C 0 km/h
1654 18-05-2010 18:58:02 16.4 C 4.33 g/m*3 16.4 C 0 km/h
1655 18-05-2010 19:10:02 15.7 C 4.42 g/m*3 15.7 C 0 km/h
1656 18-05-2010 19:22:02 16.1 C 4.25 g/m*3 16.1 C 0 km/h
1657 18-05-2010 19:34:03 15.3 C 4.31 g/m*3 15.3 C 0 km/h
1658 18-05-2010 19:46:02 14.8 C 4.56 g/m*3 14.8 C 0 km/h
1659 18-05-2010 19:58:02 14.7 C 4.66 g/m*3 14.7 C 0 km/h
1660 18-05-2010 20:10:02 14.5 C 4.6 g/m*3 14.5 C 0 km/h
1661 18-05-2010 20:22:01 14.4 C 4.94 g/m*3 14.4 C 0 km/h
1662 18-05-2010 20:34:02 14.5 C 4.85 g/m*3 14.5 C 0 km/h
1663 18-05-2010 20:46:02 14.1 C 4.85 g/m*3 14.1 C 0 km/h
1664 18-05-2010 20:58:02 13.8 C 4.89 g/m*3 13.8 C 0 km/h
1665 18-05-2010 21:10:02 13.5 C 5.03 g/m*3 13.5 C 0 km/h
1666 18-05-2010 21:22:02 13.1 C 4.79 g/m*3 13.1 C 0 km/h
1667 18-05-2010 21:34:02 12.6 C 4.76 g/m*3 12.6 C 0 km/h
1668 18-05-2010 21:46:02 12.4 C 4.48 g/m*3 12.4 C 0 km/h
1669 18-05-2010 21:58:02 12.4 C 4.37 g/m*3 12.4 C 0 km/h
1670 18-05-2010 22:10:02 12 C 4.37 g/m*3 12 C 0 km/h
1671 18-05-2010 22:22:02 11.7 C 4.39 g/m*3 11.7 C 0 km/h
1672 18-05-2010 22:35:02 11.5 C 4.44 g/m*3 11.5 C 0 km/h
1673 18-05-2010 22:47:02 11.2 C 4.66 g/m*3 11.2 C 0 km/h
1674 18-05-2010 22:59:02 10.8 C 4.94 g/m*3 10.8 C 0 km/h
1675 18-05-2010 23:11:02 10.5 C 5.04 g/m*3 10.5 C 0 km/h
Sensor: Nr:Datum:Temp:Abs-Feuchte:Windchill:Wind:
Aussen-T/F 1676 18-05-2010 23:23:02 10.2 C 5.33 g/m*3 10.2 C 0 km/h
1677 18-05-2010 23:35:03 9.9 C 5.51 g/m*3 9.9 C 0 km/h
1678 18-05-2010 23:47:03 9.7 C 5.53 g/m*3 9.7 C 0 km/h
1679 18-05-2010 23:59:03 9.6 C 5.59 g/m*3 9.6 C 0 km/h

Legende:
   Min
   Max


Maximal/Minimal-Werte vom 05.05.2010 - 18.05.2010

Sensor Min Max Avg
Temp
(Aussen-T/F)
2.5 °C
05-05-2010  06:45:03
21.7 °C
16-05-2010  17:08:02
10.15 °C
Abs-Feuchte
(Aussen-T/F)
2.23 g/m*3
05-05-2010  12:09:02
10.05 g/m*3
17-05-2010  16:09:01
6.07 g/m*3
Windchill
(Aussen-T/F)
2.5 C
05-05-2010  06:45:03
21.7 C
16-05-2010  17:08:02
10.15 C

Die Daten stammen von einer Davis Vantage Pro 2 Wetter-Station und werden unter Linux mit der Software wview2wettercgi und aufbereitet. Alle Angaben erfolgen ohne Gewähr für ihre Vollständigkeit oder Richtigkeit.
Kontakt: Rainer Krienke krienke@uni-koblenz.de . Meine Webseiten an der Uni Koblenz oder privat.
Version: $Revision: 0.78 $